Data for 09/17/2010

Time Sea-Level Adjusted Pressure Absolute Pressure Temperature Relative Humidity Dew Point Precipitation   
(mb) (inHg) (mb) (inHg) (C) (F) (%) (C) (F) (mm) (in)
00:01 1022 30.18 851 25.13 10.5 50.9 90 9 48.1 10.82 0.426
00:02 1022 30.18 851 25.13 10.5 50.9 90 9 48.2 10.86 0.428
00:03 1022 30.18 851 25.13 10.5 50.8 91 9 48.2 10.85 0.427
00:04 1022 30.18 851 25.13 10.5 50.8 90 8.9 48.1 10.86 0.428
00:05 1022 30.18 851 25.13 10.4 50.8 91 9 48.2 10.81 0.426
00:06 1022 30.18 851 25.13 10.5 50.8 91 9.1 48.3 10.8 0.425
00:07 1022 30.18 851 25.13 10.4 50.8 91 9.1 48.4 10.8 0.425
00:08 1022 30.18 851 25.13 10.4 50.7 92 9.1 48.4 10.77 0.424
00:09 1022 30.18 851 25.13 10.4 50.6 92 9.1 48.4 10.75 0.423
00:10 1022 30.18 851 25.13 10.4 50.7 92 9.1 48.5 10.73 0.422
00:11 1022 30.18 851 25.13 10.4 50.7 92 9.2 48.5 10.76 0.424
00:12 1022 30.18 851 25.13 10.4 50.7 92 9.1 48.4 10.76 0.424
00:13 1022 30.18 851 25.13 10.5 50.8 92 9.2 48.5 10.73 0.422
00:14 1022 30.18 851 25.13 10.4 50.7 92 9.1 48.4 10.73 0.422
00:15 1022 30.18 851 25.13 10.4 50.7 92 9.1 48.4 10.72 0.422
00:16 1022 30.18 851 25.13 10.4 50.7 92 9.2 48.5 10.71 0.422
00:17 1022 30.18 851 25.13 10.3 50.6 92 9.2 48.5 10.69 0.421
00:18 1022 30.18 851 25.13 10.3 50.5 93 9.1 48.5 10.64 0.419
00:19 1022 30.18 851 25.13 10.3 50.5 93 9.1 48.5 10.63 0.419
00:20 1022 30.18 851 25.13 10.3 50.6 93 9.2 48.5 10.61 0.418
00:21 1022 30.18 851 25.13 10.3 50.5 93 9.2 48.5 10.6 0.417
00:22 1022 30.18 851 25.13 10.3 50.5 93 9.2 48.5 10.63 0.419
00:23 1022 30.18 851 25.13 10.3 50.5 93 9.2 48.5 10.57 0.416
00:24 1022 30.18 851 25.13 10.2 50.4 93 9.2 48.5 10.66 0.42
00:25 1022 30.18 851 25.13 10.2 50.4 93 9.2 48.5 10.64 0.419
00:26 1022 30.18 851 25.13 10.2 50.4 93 9.1 48.5 10.57 0.416
00:27 1022 30.18 851 25.13 10.2 50.4 93 9.2 48.5 10.55 0.415
00:28 1022 30.18 851 25.13 10.2 50.4 93 9.2 48.5 10.53 0.415
00:29 1021 30.15 851 25.13 10.2 50.3 93 9.2 48.5 10.57 0.416
00:30 1021 30.15 851 25.13 10.2 50.3 93 9.1 48.5 10.55 0.415
00:31 1021 30.15 851 25.13 10.1 50.3 93 9.1 48.4 10.54 0.415
00:32 1021 30.15 851 25.13 10.2 50.3 93 9.2 48.5 10.54 0.415
00:33 1021 30.15 851 25.13 10.2 50.4 93 9.2 48.5 10.59 0.417
00:34 1021 30.15 851 25.13 10.3 50.5 93 9.2 48.6 10.61 0.418
00:35 1021 30.15 851 25.13 10.2 50.4 93 9.2 48.5 10.61 0.418
00:36 1021 30.15 850 25.1 10.2 50.4 93 9.2 48.5 10.59 0.417
00:37 1021 30.15 850 25.1 10.2 50.3 93 9.1 48.4 10.54 0.415
00:38 1021 30.15 850 25.1 10.2 50.3 94 9.2 48.6 10.54 0.415
00:39 1021 30.15 850 25.1 10.2 50.3 94 9.2 48.6 10.51 0.414
00:40 1021 30.15 850 25.1 10.2 50.3 94 9.2 48.6 10.5 0.413
00:41 1021 30.15 850 25.1 10.2 50.3 94 9.2 48.6 10.51 0.414
00:42 1021 30.15 851 25.13 10.3 50.5 94 9.3 48.8 10.55 0.415
00:43 1021 30.15 851 25.13 10.2 50.4 94 9.3 48.7 10.56 0.416
00:44 1021 30.15 851 25.13 10.3 50.5 94 9.3 48.8 10.63 0.419
00:45 1021 30.15 851 25.13 10.3 50.5 94 9.3 48.7 10.56 0.416
00:46 1021 30.15 851 25.13 10.3 50.6 94 9.3 48.8 10.61 0.418
00:47 1021 30.15 851 25.13 10.3 50.6 94 9.3 48.8 10.57 0.416
00:48 1021 30.15 851 25.13 10.3 50.5 94 9.3 48.8 10.58 0.417
00:49 1021 30.15 851 25.13 10.3 50.5 94 9.3 48.8 10.63 0.419
00:50 1021 30.15 851 25.13 10.3 50.5 94 9.3 48.8 10.6 0.417
00:51 1021 30.15 851 25.13 10.3 50.5 94 9.3 48.8 10.63 0.419
00:52 1021 30.15 851 25.13 10.3 50.6 94 9.4 48.9 10.63 0.419
00:53 1021 30.15 851 25.13 10.3 50.5 94 9.4 48.8 10.63 0.419
00:54 1021 30.15 851 25.13 10.3 50.6 94 9.4 48.9 10.66 0.42
00:55 1021 30.15 851 25.13 10.3 50.6 94 9.4 48.9 10.71 0.422
00:56 1021 30.15 851 25.13 10.4 50.6 94 9.4 48.9 10.69 0.421
00:57 1021 30.15 851 25.13 10.4 50.7 94 9.4 49 10.73 0.422
00:58 1022 30.18 851 25.13 10.4 50.7 94 9.4 49 10.71 0.422
00:59 1022 30.18 851 25.13 10.4 50.7 94 9.4 49 10.71 0.422
01:00 1022 30.18 851 25.13 10.4 50.7 94 9.5 49 10.71 0.422
01:01 1022 30.18 851 25.13 10.4 50.6 94 9.4 49 10.68 0.42
01:02 1022 30.18 851 25.13 10.3 50.6 94 9.4 48.9 10.67 0.42
01:03 1022 30.18 851 25.13 10.3 50.5 94 9.4 48.9 10.64 0.419
01:04 1022 30.18 851 25.13 10.3 50.5 94 9.4 48.9 10.63 0.419
01:05 1022 30.18 851 25.13 10.3 50.5 94 9.4 49 10.64 0.419
01:06 1022 30.18 851 25.13 10.3 50.5 95 9.4 49 10.67 0.42
01:07 1022 30.18 851 25.13 10.3 50.5 95 9.5 49 10.66 0.42
01:08 1022 30.18 851 25.13 10.3 50.6 95 9.5 49.1 10.67 0.42
01:09 1021 30.15 851 25.13 10.3 50.6 95 9.5 49.1 10.71 0.422
01:10 1021 30.15 851 25.13 10.3 50.6 95 9.5 49.1 10.65 0.419
01:11 1021 30.15 851 25.13 10.3 50.5 95 9.5 49.1 10.65 0.419
01:12 1021 30.15 851 25.13 10.3 50.5 95 9.5 49.1 10.65 0.419
01:13 1021 30.15 851 25.13 10.3 50.6 95 9.5 49.2 10.64 0.419
01:14 1021 30.15 851 25.13 10.3 50.5 95 9.5 49.1 10.67 0.42
01:15 1021 30.15 851 25.13 10.3 50.5 95 9.5 49.1 10.64 0.419
01:16 1021 30.15 851 25.13 10.3 50.6 95 9.6 49.2 10.63 0.419
01:17 1021 30.15 851 25.13 10.3 50.6 95 9.6 49.2 10.61 0.418
01:18 1021 30.15 851 25.13 10.2 50.4 95 9.5 49 10.58 0.417
01:19 1021 30.15 851 25.13 10.3 50.5 95 9.5 49.2 10.58 0.417
01:20 1021 30.15 851 25.13 10.3 50.5 95 9.6 49.2 10.59 0.417
01:21 1021 30.15 851 25.13 10.2 50.4 95 9.5 49.2 10.57 0.416
01:22 1021 30.15 851 25.13 10.2 50.4 96 9.5 49.2 10.57 0.416
01:23 1021 30.15 851 25.13 10.3 50.5 96 9.6 49.2 10.59 0.417
01:24 1021 30.15 851 25.13 10.3 50.5 96 9.6 49.2 10.61 0.418
01:25 1021 30.15 851 25.13 10.3 50.5 95 9.6 49.3 10.61 0.418
01:26 1021 30.15 851 25.13 10.3 50.5 95 9.5 49.1 10.57 0.416
01:27 1021 30.15 851 25.13 10.3 50.5 95 9.4 49 10.57 0.416
01:28 1021 30.15 851 25.13 10.3 50.5 94 9.4 48.9 10.57 0.416
01:29 1021 30.15 851 25.13 10.3 50.5 94 9.4 48.8 10.58 0.417
01:30 1021 30.15 851 25.13 10.3 50.5 94 9.3 48.8 10.62 0.418
01:31 1021 30.15 851 25.13 10.3 50.6 93 9.3 48.8 10.6 0.417
01:32 1021 30.15 851 25.13 10.3 50.6 93 9.3 48.8 10.64 0.419
01:33 1021 30.15 851 25.13 10.3 50.6 93 9.3 48.7 10.65 0.419
01:34 1021 30.15 851 25.13 10.3 50.6 93 9.3 48.7 10.62 0.418
01:35 1021 30.15 851 25.13 10.3 50.6 93 9.3 48.7 10.65 0.419
01:36 1021 30.15 851 25.13 10.3 50.6 94 9.3 48.8 10.63 0.419
01:37 1021 30.15 851 25.13 10.3 50.6 94 9.4 48.8 10.65 0.419
01:38 1021 30.15 851 25.13 10.3 50.5 94 9.3 48.8 10.67 0.42
01:39 1021 30.15 851 25.13 10.3 50.6 94 9.4 48.9 10.68 0.42
01:40 1021 30.15 851 25.13 10.4 50.6 94 9.4 48.9 10.68 0.42
01:41 1021 30.15 851 25.13 10.4 50.7 94 9.5 49 10.73 0.422
01:42 1021 30.15 851 25.13 10.4 50.8 94 9.5 49.1 10.77 0.424
01:43 1021 30.15 851 25.13 10.4 50.8 94 9.5 49.1 10.75 0.423
01:44 1021 30.15 851 25.13 10.4 50.7 94 9.5 49.1 10.7 0.421
01:45 1021 30.15 851 25.13 10.4 50.7 94 9.5 49 10.68 0.42
01:46 1021 30.15 851 25.13 10.3 50.6 94 9.5 49 10.66 0.42
01:47 1021 30.15 851 25.13 10.3 50.6 94 9.5 49 10.66 0.42
01:48 1021 30.15 851 25.13 10.4 50.6 94 9.5 49.1 10.66 0.42
01:49 1021 30.15 851 25.13 10.4 50.7 94 9.5 49.1 10.73 0.422
01:50 1021 30.15 851 25.13 10.4 50.7 94 9.5 49 10.73 0.422
01:51 1021 30.15 851 25.13 10.5 50.8 93 9.4 49 10.73 0.422
01:52 1021 30.15 851 25.13 10.5 50.9 93 9.4 48.9 10.77 0.424
01:53 1021 30.15 851 25.13 10.6 51 93 9.4 49 10.83 0.426
01:54 1021 30.15 851 25.13 10.6 51 92 9.4 48.9 10.86 0.428
01:55 1021 30.15 850 25.1 10.6 51 92 9.4 48.8 10.86 0.428
01:56 1021 30.15 850 25.1 10.6 51.1 92 9.4 48.9 10.86 0.428
01:57 1021 30.15 850 25.1 10.6 51 92 9.4 48.9 10.85 0.427
01:58 1021 30.15 850 25.1 10.5 51 92 9.4 48.8 10.88 0.428
01:59 1021 30.15 850 25.1 10.6 51 92 9.3 48.8 10.84 0.427
02:00 1021 30.15 850 25.1 10.6 51 92 9.3 48.8 10.86 0.428
02:01 1021 30.15 850 25.1 10.6 51 92 9.3 48.8 10.88 0.428
02:02 1021 30.15 850 25.1 10.5 51 92 9.3 48.8 10.83 0.426
02:03 1021 30.15 850 25.1 10.5 50.9 92 9.3 48.8 10.85 0.427
02:04 1021 30.15 850 25.1 10.5 51 92 9.4 48.8 10.84 0.427
02:05 1021 30.15 850 25.1 10.6 51 92 9.4 48.9 10.85 0.427
02:06 1021 30.15 850 25.1 10.5 50.9 93 9.4 48.9 10.81 0.426
02:07 1021 30.15 850 25.1 10.5 50.8 93 9.3 48.8 10.84 0.427
02:08 1021 30.15 851 25.13 10.5 50.9 92 9.3 48.8 10.81 0.426
02:09 1021 30.15 851 25.13 10.5 50.9 92 9.3 48.8 10.84 0.427
02:10 1021 30.15 851 25.13 10.6 51 92 9.3 48.8 10.83 0.426
02:11 1021 30.15 851 25.13 10.6 51 92 9.4 48.9 10.82 0.426
02:12 1021 30.15 851 25.13 10.6 51 92 9.4 48.9 10.85 0.427
02:13 1021 30.15 851 25.13 10.5 51 92 9.3 48.7 10.85 0.427
02:14 1021 30.15 851 25.13 10.6 51 92 9.4 48.8 10.86 0.428
02:15 1021 30.15 851 25.13 10.6 51 93 9.4 49 10.88 0.428
02:16 1021 30.15 851 25.13 10.6 51 93 9.4 49 10.85 0.427
02:17 1021 30.15 851 25.13 10.5 50.9 93 9.4 48.9 10.81 0.426
02:18 1021 30.15 851 25.13 10.5 50.9 93 9.5 49 10.83 0.426
02:19 1021 30.15 851 25.13 10.5 51 93 9.5 49 10.79 0.425
02:20 1021 30.15 851 25.13 10.5 50.9 93 9.4 49 10.82 0.426
02:21 1021 30.15 851 25.13 10.5 50.9 93 9.4 48.9 10.83 0.426
02:22 1021 30.15 851 25.13 10.5 50.9 93 9.4 48.9 10.81 0.426
02:23 1021 30.15 851 25.13 10.5 51 93 9.4 49 10.86 0.428
02:24 1021 30.15 851 25.13 10.5 51 93 9.4 49 10.82 0.426
02:25 1021 30.15 851 25.13 10.5 51 93 9.4 49 10.88 0.428
02:26 1021 30.15 851 25.13 10.6 51 93 9.4 48.9 10.82 0.426
02:27 1021 30.15 851 25.13 10.6 51.1 92 9.4 48.9 10.89 0.429
02:28 1021 30.15 851 25.13 10.7 51.2 92 9.4 48.9 10.85 0.427
02:29 1021 30.15 851 25.13 10.7 51.2 92 9.4 48.9 10.93 0.43
02:30 1021 30.15 851 25.13 10.7 51.3 92 9.4 49 10.93 0.43
02:31 1021 30.15 851 25.13 10.7 51.2 92 9.4 48.9 10.93 0.43
02:32 1021 30.15 851 25.13 10.7 51.3 92 9.4 48.9 10.94 0.431
02:33 1021 30.15 851 25.13 10.7 51.3 92 9.4 49 10.98 0.432
02:34 1021 30.15 851 25.13 10.7 51.3 92 9.5 49.1 10.98 0.432
02:35 1021 30.15 851 25.13 10.7 51.2 92 9.5 49.1 10.94 0.431
02:36 1021 30.15 851 25.13 10.7 51.2 93 9.6 49.2 10.97 0.432
02:37 1021 30.15 851 25.13 10.6 51.1 93 9.5 49.2 10.93 0.43
02:38 1021 30.15 851 25.13 10.6 51 94 9.6 49.2 10.88 0.428
02:39 1021 30.15 851 25.13 10.5 50.9 94 9.6 49.2 10.83 0.426
02:40 1021 30.15 851 25.13 10.5 50.9 94 9.5 49.2 10.84 0.427
02:41 1022 30.18 851 25.13 10.5 50.9 94 9.6 49.2 10.81 0.426
02:42 1022 30.18 851 25.13 10.4 50.8 94 9.5 49.2 10.82 0.426
02:43 1022 30.18 851 25.13 10.4 50.8 94 9.6 49.2 10.81 0.426
02:44 1022 30.18 851 25.13 10.4 50.7 95 9.6 49.2 10.76 0.424
02:45 1022 30.18 851 25.13 10.4 50.7 95 9.6 49.3 10.77 0.424
02:46 1022 30.18 851 25.13 10.3 50.5 95 9.6 49.2 10.68 0.42
02:47 1022 30.18 851 25.13 10.3 50.6 95 9.6 49.3 10.73 0.422
02:48 1022 30.18 851 25.13 10.4 50.7 95 9.7 49.4 10.71 0.422
02:49 1022 30.18 851 25.13 10.3 50.6 95 9.6 49.3 10.73 0.422
02:50 1022 30.18 851 25.13 10.4 50.7 95 9.7 49.5 10.75 0.423
02:51 1022 30.18 851 25.13 10.4 50.7 95 9.7 49.4 10.84 0.427
02:52 1022 30.18 851 25.13 10.5 50.8 95 9.7 49.4 10.84 0.427
02:53 1022 30.18 851 25.13 10.5 50.9 95 9.7 49.5 10.86 0.428
02:54 1022 30.18 851 25.13 10.5 51 94 9.7 49.4 10.84 0.427
02:55 1022 30.18 851 25.13 10.5 51 94 9.7 49.4 10.92 0.43
02:56 1022 30.18 851 25.13 10.6 51 94 9.7 49.4 10.9 0.429
02:57 1022 30.18 851 25.13 10.6 51 94 9.6 49.3 10.89 0.429
02:58 1022 30.18 851 25.13 10.6 51 93 9.5 49.1 10.92 0.43
02:59 1022 30.18 851 25.13 10.7 51.2 93 9.6 49.3 10.94 0.431
03:00 1022 30.18 851 25.13 10.7 51.2 93 9.6 49.3 11.01 0.433
03:01 1021 30.15 851 25.13 10.7 51.2 93 9.6 49.2 10.96 0.431
03:02 1021 30.15 851 25.13 10.7 51.2 93 9.6 49.2 10.89 0.429
03:03 1021 30.15 851 25.13 10.7 51.2 92 9.5 49 10.93 0.43
03:04 1021 30.15 851 25.13 10.7 51.3 92 9.5 49.1 10.92 0.43
03:05 1021 30.15 851 25.13 10.7 51.2 93 9.5 49.2 10.94 0.431
03:06 1021 30.15 851 25.13 10.7 51.2 93 9.5 49.1 10.94 0.431
03:07 1022 30.18 851 25.13 10.6 51.1 93 9.5 49.1 10.93 0.43
03:08 1022 30.18 851 25.13 10.6 51.1 92 9.4 49 10.91 0.43
03:09 1021 30.15 851 25.13 10.7 51.2 92 9.5 49 10.97 0.432
03:10 1021 30.15 851 25.13 10.7 51.3 92 9.5 49 10.92 0.43
03:11 1021 30.15 851 25.13 10.7 51.2 92 9.4 49 10.93 0.43
03:12 1021 30.15 851 25.13 10.7 51.2 92 9.4 49 10.98 0.432
03:13 1021 30.15 851 25.13 10.7 51.3 92 9.5 49 10.95 0.431
03:14 1021 30.15 851 25.13 10.8 51.4 92 9.5 49.1 10.99 0.433
03:15 1021 30.15 851 25.13 10.8 51.4 92 9.5 49.2 11.02 0.434
03:16 1021 30.15 851 25.13 10.7 51.2 92 9.5 49.1 11 0.433
03:17 1021 30.15 851 25.13 10.7 51.2 92 9.5 49.1 10.99 0.433
03:18 1021 30.15 850 25.1 10.7 51.2 93 9.5 49.2 11.02 0.434
03:19 1021 30.15 850 25.1 10.7 51.2 93 9.5 49.2 11.01 0.433
03:20 1021 30.15 850 25.1 10.7 51.2 93 9.5 49.1 10.96 0.431
03:21 1021 30.15 850 25.1 10.6 51.1 93 9.5 49.1 10.93 0.43
03:22 1021 30.15 850 25.1 10.6 51.1 93 9.4 49 10.89 0.429
03:23 1021 30.15 850 25.1 10.6 51 93 9.4 49 10.91 0.43
03:24 1021 30.15 850 25.1 10.6 51 92 9.4 48.9 10.86 0.428
03:25 1021 30.15 850 25.1 10.6 51.1 92 9.4 48.8 10.9 0.429
03:26 1021 30.15 850 25.1 10.7 51.2 91 9.3 48.8 10.94 0.431
03:27 1021 30.15 850 25.1 10.7 51.2 91 9.3 48.8 11.03 0.434
03:28 1021 30.15 850 25.1 10.7 51.3 92 9.4 49 10.96 0.431
03:29 1021 30.15 850 25.1 10.7 51.2 92 9.4 49 10.96 0.431
03:30 1021 30.15 850 25.1 10.6 51.1 92 9.4 49 10.92 0.43
03:31 1021 30.15 850 25.1 10.6 51.1 92 9.4 48.9 10.94 0.431
03:32 1021 30.15 850 25.1 10.6 51 93 9.4 48.9 10.88 0.428
03:33 1021 30.15 850 25.1 10.5 51 93 9.4 48.9 10.88 0.428
03:34 1021 30.15 850 25.1 10.6 51 93 9.4 49 10.86 0.428
03:35 1021 30.15 850 25.1 10.5 51 93 9.4 48.9 10.85 0.427
03:36 1021 30.15 850 25.1 10.5 50.9 93 9.4 48.8 10.86 0.428
03:37 1021 30.15 850 25.1 10.5 50.9 93 9.4 48.9 10.79 0.425
03:38 1021 30.15 850 25.1 10.5 50.8 93 9.4 48.9 10.79 0.425
03:39 1021 30.15 850 25.1 10.4 50.7 93 9.3 48.8 10.72 0.422
03:40 1021 30.15 850 25.1 10.4 50.8 93 9.4 48.9 10.73 0.422
03:41 1021 30.15 850 25.1 10.4 50.7 93 9.3 48.8 10.71 0.422
03:42 1021 30.15 850 25.1 10.4 50.6 93 9.3 48.7 10.7 0.421
03:43 1021 30.15 850 25.1 10.4 50.6 93 9.3 48.8 10.71 0.422
03:44 1021 30.15 850 25.1 10.4 50.6 93 9.3 48.7 10.64 0.419
03:45 1021 30.15 850 25.1 10.3 50.5 93 9.2 48.6 10.62 0.418
03:46 1021 30.15 850 25.1 10.3 50.5 93 9.2 48.6 10.59 0.417
03:47 1021 30.15 850 25.1 10.2 50.3 93 9.1 48.4 10.53 0.415
03:48 1021 30.15 850 25.1 10.1 50.2 94 9.2 48.5 10.47 0.412
03:49 1021 30.15 850 25.1 10.1 50.1 94 9.1 48.3 10.4 0.409
03:50 1021 30.15 850 25.1 10.1 50.1 94 9.1 48.4 10.4 0.409
03:51 1021 30.15 850 25.1 10.1 50.1 94 9.1 48.4 10.38 0.409
03:52 1021 30.15 850 25.1 10.1 50.1 94 9.2 48.5 10.4 0.409
03:53 1021 30.15 850 25.1 10 50.1 94 9.1 48.4 10.34 0.407
03:54 1021 30.15 850 25.1 10 50.1 94 9.1 48.4 10.34 0.407
03:55 1021 30.15 850 25.1 10.1 50.1 94 9.1 48.4 10.37 0.408
03:56 1021 30.15 850 25.1 10.1 50.1 94 9.1 48.4 10.38 0.409
03:57 1021 30.15 850 25.1 10.1 50.1 94 9.1 48.4 10.38 0.409
03:58 1021 30.15 850 25.1 10.1 50.1 93 9 48.3 10.4 0.409
03:59 1021 30.15 850 25.1 10.1 50.1 93 9 48.3 10.38 0.409
04:00 1021 30.15 850 25.1 10.1 50.1 93 9 48.2 10.37 0.408
04:01 1021 30.15 850 25.1 10 50.1 93 9 48.1 10.34 0.407
04:02 1021 30.15 850 25.1 10 50 93 8.9 48 10.32 0.406
04:03 1021 30.15 850 25.1 10 49.9 93 8.9 48 10.31 0.406
04:04 1021 30.15 850 25.1 10 50 93 9 48.1 10.31 0.406
04:05 1021 30.15 850 25.1 10 49.9 93 8.9 48 10.29 0.405
04:06 1021 30.15 850 25.1 10 49.9 93 8.9 48.1 10.29 0.405
04:07 1021 30.15 850 25.1 9.9 49.9 93 8.8 47.8 10.23 0.403
04:08 1021 30.15 850 25.1 9.8 49.6 92 8.6 47.5 10.12 0.398
04:09 1021 30.15 850 25.1 9.7 49.5 93 8.7 47.6 10.08 0.397
04:10 1021 30.15 850 25.1 9.7 49.4 93 8.7 47.6 10.01 0.394
04:11 1021 30.15 850 25.1 9.6 49.3 94 8.7 47.6 9.99 0.393
04:12 1021 30.15 850 25.1 9.6 49.3 94 8.8 47.8 9.99 0.393
04:13 1021 30.15 850 25.1 9.7 49.4 94 8.8 47.9 10.01 0.394
04:14 1021 30.15 850 25.1 9.7 49.5 94 8.9 47.9 10.02 0.394
04:15 1021 30.15 850 25.1 9.7 49.4 92 8.5 47.3 9.98 0.393
04:16 1021 30.15 850 25.1 9.6 49.2 93 8.6 47.4 9.91 0.39
04:17 1021 30.15 850 25.1 9.6 49.2 93 8.5 47.4 9.85 0.388
04:18 1021 30.15 850 25.1 9.5 49 93 8.4 47 9.76 0.384
04:19 1021 30.15 850 25.1 9.4 48.9 94 8.5 47.3 9.73 0.383
04:20 1021 30.15 850 25.1 9.4 48.8 93 8.2 46.8 9.65 0.38
04:21 1021 30.15 850 25.1 9.2 48.5 93 8 46.5 9.47 0.373
04:22 1021 30.15 850 25.1 9.1 48.4 94 8.1 46.6 9.4 0.37
04:23 1021 30.15 850 25.1 9.1 48.4 93 8.1 46.5 9.41 0.37
04:24 1021 30.15 850 25.1 9.1 48.3 93 8 46.3 9.36 0.369
04:25 1021 30.15 850 25.1 9 48.2 94 8 46.4 9.29 0.366
04:26 1021 30.15 850 25.1 9 48.1 94 8 46.5 9.28 0.365
04:27 1021 30.15 850 25.1 8.9 48.1 93 7.9 46.2 9.27 0.365
04:28 1021 30.15 850 25.1 8.8 47.9 94 7.8 46.1 9.2 0.362
04:29 1021 30.15 850 25.1 8.7 47.7 94 7.7 45.9 9.13 0.359
04:30 1021 30.15 850 25.1 8.7 47.6 94 7.7 45.9 8.98 0.354
04:31 1021 30.15 850 25.1 8.6 47.5 94 7.7 45.8 8.94 0.352
04:32 1021 30.15 850 25.1 8.5 47.3 95 7.7 45.9 8.85 0.348
04:33 1021 30.15 850 25.1 8.5 47.3 95 7.8 46 8.85 0.348
04:34 1021 30.15 850 25.1 8.5 47.2 95 7.7 45.8 8.77 0.345
04:35 1021 30.15 850 25.1 8.5 47.2 96 7.8 46.1 8.82 0.347
04:36 1021 30.15 850 25.1 8.6 47.5 96 8 46.5 8.94 0.352
04:37 1021 30.15 850 25.1 8.7 47.6 96 8 46.5 9.05 0.356
04:38 1021 30.15 850 25.1 8.7 47.7 96 8.2 46.7 9.07 0.357
04:39 1021 30.15 850 25.1 8.8 47.8 96 8.1 46.6 9.11 0.359
04:40 1021 30.15 850 25.1 8.7 47.7 95 8 46.5 9.12 0.359
04:41 1021 30.15 850 25.1 8.8 47.8 96 8.1 46.6 9.14 0.36
04:42 1021 30.15 850 25.1 8.8 47.9 96 8.2 46.8 9.18 0.361
04:43 1021 30.15 850 25.1 8.8 47.9 96 8.2 46.7 9.19 0.362
04:44 1021 30.15 850 25.1 8.8 47.9 96 8.2 46.7 9.21 0.363
04:45 1021 30.15 850 25.1 8.8 47.9 96 8.2 46.7 9.19 0.362
04:46 1021 30.15 850 25.1 8.8 47.9 96 8.2 46.7 9.16 0.361
04:47 1021 30.15 850 25.1 8.7 47.7 95 8 46.4 9.09 0.358
04:48 1021 30.15 850 25.1 8.7 47.7 96 8.1 46.5 9.04 0.356
04:49 1021 30.15 850 25.1 8.7 47.6 96 8.1 46.5 9.05 0.356
04:50 1021 30.15 850 25.1 8.7 47.6 96 8.1 46.6 9.08 0.357
04:51 1021 30.15 850 25.1 8.7 47.7 96 8.2 46.7 9.11 0.359
04:52 1021 30.15 850 25.1 8.8 47.8 97 8.2 46.8 9.2 0.362
04:53 1021 30.15 850 25.1 8.8 47.9 97 8.3 47 9.25 0.364
04:54 1021 30.15 850 25.1 8.9 48.1 97 8.5 47.2 9.31 0.367
04:55 1021 30.15 850 25.1 9 48.1 97 8.5 47.3 9.41 0.37
04:56 1021 30.15 850 25.1 9 48.2 97 8.5 47.4 9.38 0.369
04:57 1021 30.15 850 25.1 9.1 48.4 97 8.6 47.5 9.45 0.372
04:58 1021 30.15 850 25.1 9.1 48.5 97 8.6 47.5 9.54 0.376
04:59 1021 30.15 850 25.1 9.2 48.5 96 8.6 47.5 9.54 0.376
05:00 1021 30.15 850 25.1 9.2 48.5 96 8.6 47.4 9.52 0.375
05:01 1021 30.15 850 25.1 9.1 48.4 96 8.5 47.4 9.48 0.373
05:02 1021 30.15 850 25.1 9.1 48.4 96 8.5 47.4 9.52 0.375
05:03 1021 30.15 850 25.1 9.2 48.5 96 8.6 47.4 9.52 0.375
05:04 1021 30.15 850 25.1 9.2 48.5 96 8.6 47.5 9.52 0.375
05:05 1021 30.15 850 25.1 9.3 48.7 97 8.8 47.8 9.61 0.378
05:06 1021 30.15 850 25.1 9.4 48.8 96 8.8 47.8 9.68 0.381
05:07 1021 30.15 850 25.1 9.4 49 96 8.8 47.8 9.76 0.384
05:08 1021 30.15 850 25.1 9.5 49 96 8.8 47.8 9.79 0.385
05:09 1021 30.15 850 25.1 9.5 49.1 95 8.8 47.9 9.83 0.387
05:10 1021 30.15 850 25.1 9.5 49.1 95 8.8 47.8 9.81 0.386
05:11 1021 30.15 850 25.1 9.5 49.2 95 8.8 47.9 9.83 0.387
05:12 1021 30.15 850 25.1 9.6 49.2 95 8.8 47.9 9.87 0.389
05:13 1021 30.15 850 25.1 9.6 49.3 95 8.9 47.9 9.88 0.389
05:14 1021 30.15 850 25.1 9.6 49.3 95 8.8 47.8 9.93 0.391
05:15 1021 30.15 850 25.1 9.6 49.3 94 8.8 47.8 9.88 0.389
05:16 1021 30.15 850 25.1 9.6 49.3 94 8.7 47.7 9.95 0.392
05:17 1021 30.15 850 25.1 9.7 49.5 94 8.8 47.8 9.99 0.393
05:18 1021 30.15 850 25.1 9.9 49.9 93 8.8 47.8 10.11 0.398
05:19 1021 30.15 850 25.1 10 50.1 92 8.8 47.8 10.25 0.404
05:20 1021 30.15 850 25.1 10 49.9 92 8.7 47.7 10.2 0.402
05:21 1021 30.15 850 25.1 9.9 49.7 92 8.7 47.6 10.18 0.401
05:22 1021 30.15 850 25.1 9.8 49.7 92 8.6 47.6 10.1 0.398
05:23 1021 30.15 850 25.1 9.8 49.6 93 8.6 47.5 10.05 0.396
05:24 1021 30.15 850 25.1 9.7 49.5 93 8.6 47.5 9.96 0.392
05:25 1021 30.15 850 25.1 9.7 49.4 93 8.6 47.4 9.96 0.392
05:26 1021 30.15 850 25.1 9.6 49.4 93 8.5 47.3 9.94 0.391
05:27 1021 30.15 850 25.1 9.5 49.2 93 8.4 47.2 9.85 0.388
05:28 1021 30.15 850 25.1 9.5 49 93 8.4 47.1 9.79 0.385
05:29 1021 30.15 850 25.1 9.4 49 94 8.5 47.2 9.73 0.383
05:30 1021 30.15 850 25.1 9.4 48.9 93 8.4 47.1 9.75 0.384
05:31 1021 30.15 850 25.1 9.4 48.8 94 8.4 47.1 9.68 0.381
05:32 1021 30.15 850 25.1 9.4 48.8 94 8.4 47.1 9.66 0.38
05:33 1021 30.15 850 25.1 9.4 48.8 94 8.4 47.2 9.67 0.381
05:34 1021 30.15 850 25.1 9.5 49 93 8.5 47.2 9.69 0.381
05:35 1021 30.15 850 25.1 9.4 48.9 93 8.3 47 9.73 0.383
05:36 1021 30.15 850 25.1 9.3 48.8 93 8.3 46.9 9.65 0.38
05:37 1021 30.15 850 25.1 9.2 48.6 93 8.2 46.8 9.57 0.377
05:38 1021 30.15 850 25.1 9.1 48.4 93 8.1 46.6 9.47 0.373
05:39 1021 30.15 850 25.1 9.1 48.3 94 8.1 46.6 9.44 0.372
05:40 1021 30.15 850 25.1 9 48.2 94 8.1 46.6 9.32 0.367
05:41 1021 30.15 850 25.1 9 48.2 94 8.1 46.6 9.31 0.367
05:42 1021 30.15 850 25.1 9 48.2 94 8.1 46.5 9.3 0.366
05:43 1021 30.15 850 25.1 8.9 48 94 8 46.4 9.21 0.363
05:44 1021 30.15 850 25.1 8.8 47.9 94 8 46.4 9.18 0.361
05:45 1021 30.15 850 25.1 8.8 47.9 94 7.9 46.3 9.17 0.361
05:46 1021 30.15 850 25.1 8.8 47.8 94 7.8 46 9.07 0.357
05:47 1021 30.15 850 25.1 8.7 47.6 94 7.8 46.1 8.97 0.353
05:48 1021 30.15 851 25.13 8.7 47.6 95 7.9 46.2 9.02 0.355
05:49 1021 30.15 851 25.13 8.7 47.6 95 7.9 46.3 8.99 0.354
05:50 1021 30.15 851 25.13 8.7 47.6 95 7.9 46.2 8.97 0.353
05:51 1021 30.15 851 25.13 8.6 47.5 95 7.9 46.2 8.91 0.351
05:52 1022 30.18 851 25.13 8.6 47.5 95 7.9 46.2 8.95 0.352
05:53 1022 30.18 851 25.13 8.6 47.4 96 7.9 46.2 8.95 0.352
05:54 1022 30.18 851 25.13 8.6 47.4 96 7.9 46.3 8.95 0.352
05:55 1022 30.18 851 25.13 8.6 47.5 96 7.9 46.3 8.94 0.352
05:56 1022 30.18 851 25.13 8.6 47.5 96 8 46.3 8.97 0.353
05:57 1022 30.18 851 25.13 8.6 47.4 96 7.9 46.2 8.98 0.354
05:58 1022 30.18 851 25.13 8.6 47.5 96 7.9 46.3 8.92 0.351
05:59 1022 30.18 851 25.13 8.6 47.5 96 7.9 46.3 8.94 0.352
06:00 1022 30.18 851 25.13 8.6 47.4 96 7.9 46.2 8.93 0.352
06:01 1022 30.18 851 25.13 8.6 47.4 96 7.9 46.2 8.89 0.35
06:02 1022 30.18 851 25.13 8.5 47.4 96 7.9 46.2 8.86 0.349
06:03 1021 30.15 851 25.13 8.6 47.4 96 7.9 46.3 8.88 0.35
06:04 1021 30.15 851 25.13 8.5 47.3 96 7.9 46.2 8.88 0.35
06:05 1021 30.15 851 25.13 8.5 47.3 96 7.9 46.2 8.84 0.348
06:06 1021 30.15 851 25.13 8.5 47.2 95 7.8 46 8.82 0.347
06:07 1021 30.15 851 25.13 8.4 47.1 95 7.7 45.8 8.73 0.344
06:08 1021 30.15 851 25.13 8.3 46.9 95 7.5 45.6 8.62 0.339
06:09 1021 30.15 851 25.13 8.2 46.7 95 7.4 45.3 8.55 0.337
06:10 1021 30.15 851 25.13 8 46.5 95 7.2 45 8.45 0.333
06:11 1021 30.15 851 25.13 7.9 46.2 95 7.2 44.9 8.36 0.329
06:12 1021 30.15 851 25.13 7.8 46.1 95 7.2 44.9 8.29 0.326
06:13 1021 30.15 851 25.13 7.8 46 96 7.2 44.9 8.18 0.322
06:14 1021 30.15 851 25.13 7.8 46 96 7.2 44.9 8.17 0.322
06:15 1022 30.18 851 25.13 7.7 45.9 96 7.1 44.8 8.16 0.321
06:16 1022 30.18 851 25.13 7.7 45.9 96 7.1 44.8 8.12 0.32
06:17 1022 30.18 851 25.13 7.8 46 96 7.2 45 8.13 0.32
06:18 1022 30.18 851 25.13 7.8 46 97 7.3 45.1 8.2 0.323
06:19 1022 30.18 851 25.13 7.8 46.1 97 7.4 45.2 8.25 0.325
06:20 1022 30.18 851 25.13 7.8 46 97 7.3 45.2 8.26 0.325
06:21 1022 30.18 851 25.13 7.9 46.2 97 7.4 45.4 8.28 0.326
06:22 1022 30.18 851 25.13 8.1 46.5 98 7.7 45.9 8.43 0.332
06:23 1022 30.18 851 25.13 8.2 46.8 98 7.9 46.2 8.56 0.337
06:24 1022 30.18 851 25.13 8.4 47 98 8 46.4 8.66 0.341
06:25 1022 30.18 851 25.13 8.5 47.2 98 8.1 46.6 8.82 0.347
06:26 1022 30.18 851 25.13 8.5 47.4 98 8.2 46.7 8.89 0.35
06:27 1022 30.18 851 25.13 8.6 47.4 97 8.2 46.8 8.96 0.353
06:28 1022 30.18 851 25.13 8.6 47.5 97 8.2 46.8 8.98 0.354
06:29 1022 30.18 851 25.13 8.7 47.6 97 8.3 46.9 9.02 0.355
06:30 1022 30.18 851 25.13 8.7 47.7 97 8.3 46.9 9.11 0.359
06:31 1022 30.18 851 25.13 8.8 47.8 97 8.4 47 9.13 0.359
06:32 1022 30.18 851 25.13 8.8 47.8 97 8.4 47.1 9.11 0.359
06:33 1022 30.18 851 25.13 8.8 47.8 97 8.3 47 9.17 0.361
06:34 1022 30.18 851 25.13 8.8 47.8 97 8.4 47.1 9.16 0.361
06:35 1022 30.18 851 25.13 8.8 47.8 97 8.4 47.1 9.17 0.361
06:36 1022 30.18 851 25.13 8.8 47.8 97 8.4 47.1 9.2 0.362
06:37 1022 30.18 851 25.13 8.8 47.9 97 8.4 47.2 9.17 0.361
06:38 1022 30.18 851 25.13 8.8 47.9 97 8.4 47.2 9.17 0.361
06:39 1022 30.18 851 25.13 8.8 47.9 98 8.4 47.2 9.18 0.361
06:40 1022 30.18 851 25.13 8.9 47.9 98 8.5 47.3 9.22 0.363
06:41 1022 30.18 851 25.13 8.8 47.9 98 8.5 47.2 9.22 0.363
06:42 1022 30.18 851 25.13 8.8 47.9 98 8.5 47.2 9.23 0.363
06:43 1022 30.18 851 25.13 8.8 47.9 98 8.5 47.2 9.18 0.361
06:44 1022 30.18 851 25.13 8.8 47.8 98 8.4 47.1 9.16 0.361
06:45 1022 30.18 851 25.13 8.8 47.8 98 8.4 47.1 9.16 0.361
06:46 1022 30.18 851 25.13 8.7 47.7 98 8.4 47.1 9.14 0.36
06:47 1022 30.18 851 25.13 8.7 47.7 98 8.3 47 9.1 0.358
06:48 1022 30.18 851 25.13 8.7 47.7 98 8.3 47 9.1 0.358
06:49 1022 30.18 851 25.13 8.7 47.7 98 8.3 47 9.07 0.357
06:50 1022 30.18 851 25.13 8.7 47.6 98 8.3 47 9.09 0.358
06:51 1022 30.18 851 25.13 8.6 47.5 98 8.3 46.9 9.03 0.356
06:52 1022 30.18 851 25.13 8.6 47.5 98 8.3 46.9 9.01 0.355
06:53 1022 30.18 851 25.13 8.6 47.4 98 8.2 46.8 8.99 0.354
06:54 1022 30.18 851 25.13 8.5 47.4 98 8.2 46.7 8.95 0.352
06:55 1022 30.18 851 25.13 8.5 47.3 98 8.2 46.7 8.92 0.351
06:56 1022 30.18 851 25.13 8.5 47.3 98 8.2 46.7 8.87 0.349
06:57 1022 30.18 851 25.13 8.5 47.2 98 8.1 46.6 8.85 0.348
06:58 1022 30.18 851 25.13 8.5 47.3 98 8.2 46.7 8.86 0.349
06:59 1022 30.18 851 25.13 8.5 47.2 98 8.2 46.7 8.86 0.349
07:00 1022 30.18 851 25.13 8.4 47.2 98 8.1 46.6 8.9 0.35
07:01 1022 30.18 851 25.13 8.5 47.2 98 8.1 46.7 8.81 0.347
07:02 1022 30.18 851 25.13 8.5 47.2 98 8.1 46.7 8.87 0.349
07:03 1022 30.18 851 25.13 8.4 47.2 98 8.1 46.6 8.85 0.348
07:04 1022 30.18 851 25.13 8.5 47.2 98 8.2 46.7 8.81 0.347
07:05 1022 30.18 851 25.13 8.5 47.2 98 8.2 46.7 8.81 0.347
07:06 1022 30.18 851 25.13 8.4 47.2 98 8.1 46.7 8.83 0.348
07:07 1022 30.18 851 25.13 8.4 47.2 98 8.2 46.7 8.82 0.347
07:08 1022 30.18 851 25.13 8.4 47.2 98 8.1 46.7 8.84 0.348
07:09 1022 30.18 851 25.13 8.4 47.2 98 8.1 46.7 8.87 0.349
07:10 1022 30.18 851 25.13 8.4 47.2 98 8.1 46.7 8.85 0.348
07:11 1022 30.18 851 25.13 8.4 47.2 98 8.1 46.7 8.85 0.348
07:12 1022 30.18 851 25.13 8.5 47.2 98 8.2 46.7 8.85 0.348
07:13 1022 30.18 851 25.13 8.4 47.2 98 8.1 46.7 8.83 0.348
07:14 1022 30.18 851 25.13 8.4 47.2 98 8.1 46.7 8.86 0.349
07:15 1022 30.18 851 25.13 8.4 47.1 98 8.1 46.6 8.87 0.349
07:16 1022 30.18 851 25.13 8.4 47.1 98 8.1 46.6 8.86 0.349
07:17 1022 30.18 851 25.13 8.4 47.2 98 8.2 46.7 8.83 0.348
07:18 1022 30.18 851 25.13 8.4 47.1 98 8.1 46.7 8.86 0.349
07:19 1022 30.18 851 25.13 8.4 47.1 98 8.1 46.7 8.85 0.348
07:20 1022 30.18 851 25.13 8.4 47.2 98 8.2 46.7 8.83 0.348
07:21 1022 30.18 851 25.13 8.4 47.2 98 8.2 46.7 8.86 0.349
07:22 1022 30.18 851 25.13 8.4 47.2 98 8.2 46.7 8.83 0.348
07:23 1022 30.18 851 25.13 8.4 47.1 98 8.2 46.7 8.85 0.348
07:24 1022 30.18 851 25.13 8.4 47.1 98 8.1 46.6 8.84 0.348
07:25 1022 30.18 851 25.13 8.4 47.1 98 8.1 46.7 8.83 0.348
07:26 1022 30.18 851 25.13 8.4 47.1 98 8.1 46.7 8.83 0.348
07:27 1022 30.18 851 25.13 8.4 47.1 98 8.1 46.6 8.83 0.348
07:28 1022 30.18 851 25.13 8.4 47.1 98 8.1 46.7 8.83 0.348
07:29 1022 30.18 851 25.13 8.4 47.2 98 8.2 46.7 8.82 0.347
07:30 1022 30.18 851 25.13 8.5 47.2 98 8.2 46.8 8.87 0.349
07:31 1022 30.18 851 25.13 8.4 47.2 98 8.2 46.7 8.87 0.349
07:32 1022 30.18 851 25.13 8.5 47.2 98 8.2 46.7 8.83 0.348
07:33 1022 30.18 851 25.13 8.4 47.2 98 8.2 46.7 8.85 0.348
07:34 1022 30.18 851 25.13 8.4 47.2 98 8.2 46.7 8.83 0.348
07:35 1022 30.18 851 25.13 8.5 47.2 98 8.2 46.8 8.82 0.347
07:36 1022 30.18 851 25.13 8.4 47.2 98 8.2 46.7 8.81 0.347
07:37 1022 30.18 851 25.13 8.5 47.2 98 8.2 46.8 8.81 0.347
07:38 1022 30.18 851 25.13 8.4 47.2 98 8.2 46.7 8.82 0.347
07:39 1022 30.18 851 25.13 8.5 47.3 98 8.2 46.8 8.87 0.349
07:40 1022 30.18 851 25.13 8.5 47.3 98 8.2 46.8 8.83 0.348
07:41 1022 30.18 851 25.13 8.5 47.2 98 8.2 46.8 8.83 0.348
07:42 1022 30.18 851 25.13 8.5 47.2 98 8.2 46.8 8.87 0.349
07:43 1022 30.18 851 25.13 8.5 47.3 98 8.2 46.8 8.87 0.349
07:44 1022 30.18 851 25.13 8.5 47.3 98 8.2 46.8 8.85 0.348
07:45 1022 30.18 851 25.13 8.5 47.2 98 8.2 46.7 8.85 0.348
07:46 1022 30.18 851 25.13 8.4 47.2 98 8.2 46.7 8.85 0.348
07:47 1022 30.18 851 25.13 8.5 47.3 98 8.2 46.8 8.85 0.348
07:48 1022 30.18 851 25.13 8.5 47.2 98 8.2 46.7 8.81 0.347
07:49 1022 30.18 851 25.13 8.4 47.1 98 8.1 46.6 8.81 0.347
07:50 1022 30.18 851 25.13 8.5 47.2 98 8.2 46.8 8.77 0.345
07:51 1022 30.18 851 25.13 8.5 47.4 98 8.3 46.9 8.82 0.347
07:52 1022 30.18 851 25.13 8.7 47.6 98 8.4 47.1 8.98 0.354
07:53 1022 30.18 851 25.13 8.7 47.7 98 8.5 47.2 9.02 0.355
07:54 1022 30.18 851 25.13 8.7 47.6 98 8.4 47.1 9 0.354
07:55 1022 30.18 851 25.13 8.7 47.7 98 8.4 47.1 9.07 0.357
07:56 1022 30.18 851 25.13 8.8 47.8 98 8.4 47.2 9.11 0.359
07:57 1022 30.18 851 25.13 8.8 47.9 98 8.5 47.4 9.17 0.361
07:58 1022 30.18 851 25.13 8.9 48 98 8.6 47.5 9.2 0.362
07:59 1022 30.18 851 25.13 8.9 48.1 98 8.6 47.5 9.25 0.364
08:00 1022 30.18 851 25.13 8.9 48.1 98 8.6 47.5 9.23 0.363
08:01 1022 30.18 851 25.13 9 48.1 98 8.6 47.5 9.33 0.367
08:02 1022 30.18 851 25.13 9 48.2 98 8.6 47.5 9.31 0.367
08:03 1022 30.18 851 25.13 9 48.2 98 8.6 47.6 9.29 0.366
08:04 1022 30.18 851 25.13 9 48.3 98 8.7 47.7 9.37 0.369
08:05 1022 30.18 851 25.13 9.1 48.3 98 8.7 47.7 9.37 0.369
08:06 1022 30.18 851 25.13 9 48.3 98 8.7 47.6 9.41 0.37
08:07 1022 30.18 851 25.13 9 48.2 98 8.6 47.6 9.42 0.371
08:08 1022 30.18 851 25.13 9 48.3 98 8.7 47.6 9.39 0.37
08:09 1022 30.18 851 25.13 9.1 48.4 97 8.7 47.7 9.42 0.371
08:10 1022 30.18 851 25.13 9.1 48.4 98 8.7 47.7 9.42 0.371
08:11 1022 30.18 851 25.13 9.1 48.4 98 8.8 47.8 9.47 0.373
08:12 1022 30.18 851 25.13 9.1 48.4 98 8.7 47.7 9.45 0.372
08:13 1022 30.18 851 25.13 9.2 48.5 98 8.8 47.8 9.5 0.374
08:14 1022 30.18 851 25.13 9.2 48.6 98 8.8 47.9 9.53 0.375
08:15 1022 30.18 851 25.13 9.2 48.6 97 8.8 47.9 9.55 0.376
08:16 1022 30.18 851 25.13 9.2 48.6 97 8.8 47.8 9.52 0.375
08:17 1022 30.18 851 25.13 9.2 48.5 97 8.8 47.8 9.5 0.374
08:18 1022 30.18 851 25.13 9.1 48.4 97 8.7 47.7 9.5 0.374
08:19 1022 30.18 851 25.13 9.1 48.4 97 8.7 47.7 9.46 0.372
08:20 1022 30.18 851 25.13 9.1 48.4 97 8.7 47.6 9.45 0.372
08:21 1022 30.18 851 25.13 9.1 48.3 98 8.7 47.7 9.46 0.372
08:22 1022 30.18 851 25.13 9.1 48.3 98 8.7 47.7 9.4 0.37
08:23 1022 30.18 851 25.13 9.1 48.3 98 8.7 47.7 9.41 0.37
08:24 1022 30.18 851 25.13 9.1 48.4 98 8.8 47.8 9.47 0.373
08:25 1022 30.18 851 25.13 9.1 48.4 98 8.8 47.8 9.47 0.373
08:26 1022 30.18 851 25.13 9.1 48.3 97 8.7 47.6 9.42 0.371
08:27 1022 30.18 851 25.13 9.1 48.3 97 8.7 47.6 9.37 0.369
08:28 1022 30.18 851 25.13 9 48.3 98 8.7 47.6 9.42 0.371
08:29 1022 30.18 851 25.13 9.1 48.3 98 8.8 47.8 9.49 0.374
08:30 1022 30.18 851 25.13 9.2 48.6 98 8.9 48 9.65 0.38
08:31 1022 30.18 851 25.13 9.3 48.8 98 9 48.3 9.69 0.381
08:32 1022 30.18 851 25.13 9.4 48.9 98 9.1 48.3 9.74 0.383
08:33 1022 30.18 851 25.13 9.4 48.9 97 9 48.1 9.75 0.384
08:34 1022 30.18 851 25.13 9.4 48.8 96 8.7 47.7 9.65 0.38
08:35 1022 30.18 851 25.13 9.3 48.8 95 8.6 47.5 9.62 0.379
08:36 1022 30.18 851 25.13 9.4 48.9 95 8.6 47.5 9.65 0.38
08:37 1022 30.18 851 25.13 9.3 48.8 95 8.5 47.3 9.59 0.378
08:38 1022 30.18 851 25.13 9.3 48.8 94 8.4 47.2 9.62 0.379
08:39 1022 30.18 851 25.13 9.3 48.8 95 8.5 47.4 9.63 0.379
08:40 1022 30.18 851 25.13 9.3 48.8 94 8.4 47.1 9.63 0.379
08:41 1022 30.18 851 25.13 9.3 48.7 94 8.3 47 9.56 0.376
08:42 1022 30.18 851 25.13 9.3 48.7 94 8.3 46.9 9.57 0.377
08:43 1022 30.18 851 25.13 9.3 48.7 94 8.3 46.9 9.54 0.376
08:44 1022 30.18 851 25.13 9.3 48.7 94 8.4 47.2 9.64 0.38
08:45 1022 30.18 851 25.13 9.3 48.7 92 8 46.5 9.51 0.374
08:46 1022 30.18 851 25.13 9.2 48.6 92 7.9 46.2 9.42 0.371
08:47 1022 30.18 851 25.13 9.1 48.5 91 7.8 46 9.38 0.369
08:48 1022 30.18 851 25.13 9.1 48.3 91 7.7 45.9 9.34 0.368
08:49 1022 30.18 851 25.13 9 48.2 91 7.7 45.8 9.25 0.364
08:50 1022 30.18 851 25.13 9 48.2 92 7.7 45.8 9.27 0.365
08:51 1022 30.18 851 25.13 8.9 48.1 91 7.6 45.7 9.22 0.363
08:52 1022 30.18 851 25.13 8.9 48.1 91 7.5 45.5 9.21 0.363
08:53 1022 30.18 851 25.13 8.9 48.1 91 7.6 45.7 9.18 0.361
08:54 1022 30.18 851 25.13 8.9 48 91 7.5 45.5 9.17 0.361
08:55 1022 30.18 851 25.13 8.9 48 89 7.2 45 9.17 0.361
08:56 1022 30.18 851 25.13 8.9 47.9 90 7.4 45.3 9.13 0.359
08:57 1022 30.18 851 25.13 8.9 48 91 7.4 45.3 9.17 0.361
08:58 1022 30.18 851 25.13 8.9 48 91 7.4 45.4 9.18 0.361
08:59 1022 30.18 851 25.13 8.9 48 90 7.4 45.2 9.2 0.362
09:00 1022 30.18 851 25.13 8.9 48 92 7.6 45.7 9.22 0.363
09:01 1022 30.18 851 25.13 8.9 48.1 92 7.7 45.9 9.26 0.365
09:02 1022 30.18 851 25.13 9 48.2 90 7.4 45.4 9.31 0.367
09:03 1022 30.18 851 25.13 9 48.2 90 7.5 45.5 9.29 0.366
09:04 1022 30.18 851 25.13 9.1 48.4 92 7.8 46.1 9.39 0.37
09:05 1022 30.18 851 25.13 9.1 48.5 92 8 46.3 9.52 0.375
09:06 1022 30.18 851 25.13 9.2 48.6 93 8.2 46.8 9.54 0.376
09:07 1022 30.18 851 25.13 9.3 48.7 93 8.2 46.7 9.6 0.378
09:08 1022 30.18 851 25.13 9.3 48.7 90 7.8 46 9.6 0.378
09:09 1022 30.18 851 25.13 9.3 48.7 91 7.9 46.2 9.59 0.378
09:10 1022 30.18 851 25.13 9.4 48.9 93 8.3 47 9.68 0.381
09:11 1022 30.18 851 25.13 9.4 48.9 91 7.9 46.3 9.73 0.383
09:12 1022 30.18 851 25.13 9.4 49 91 8.1 46.6 9.77 0.385
09:13 1022 30.18 851 25.13 9.6 49.2 93 8.5 47.2 9.83 0.387
09:14 1022 30.18 851 25.13 9.6 49.2 89 7.9 46.2 9.81 0.386
09:15 1022 30.18 851 25.13 9.4 49 88 7.6 45.7 9.64 0.38
09:16 1022 30.18 851 25.13 9.3 48.7 90 7.7 45.9 9.5 0.374
09:17 1022 30.18 851 25.13 9.2 48.6 91 7.8 46 9.51 0.374
09:18 1022 30.18 851 25.13 9.3 48.7 92 8 46.5 9.52 0.375
09:19 1022 30.18 851 25.13 9.2 48.5 88 7.3 45.2 9.45 0.372
09:20 1022 30.18 851 25.13 9.2 48.5 88 7.3 45.2 9.43 0.371
09:21 1022 30.18 851 25.13 9.1 48.4 88 7.3 45.1 9.39 0.37
09:22 1022 30.18 851 25.13 9.2 48.5 90 7.6 45.7 9.41 0.37
09:23 1022 30.18 851 25.13 9.2 48.5 88 7.4 45.2 9.45 0.372
09:24 1022 30.18 851 25.13 9.2 48.6 88 7.3 45.1 9.45 0.372
09:25 1022 30.18 851 25.13 9.2 48.5 86 7 44.5 9.39 0.37
09:26 1022 30.18 851 25.13 9.2 48.5 89 7.4 45.3 9.47 0.373
09:27 1022 30.18 851 25.13 9.2 48.6 87 7.3 45.1 9.48 0.373
09:28 1022 30.18 851 25.13 9.3 48.7 88 7.5 45.5 9.56 0.376
09:29 1022 30.18 851 25.13 9.3 48.7 87 7.2 45 9.6 0.378
09:30 1022 30.18 851 25.13 9.3 48.7 89 7.6 45.7 9.6 0.378
09:31 1022 30.18 851 25.13 9.3 48.8 86 7.1 44.7 9.56 0.376
09:32 1022 30.18 851 25.13 9.3 48.8 88 7.4 45.4 9.55 0.376
09:33 1022 30.18 851 25.13 9.4 48.8 88 7.5 45.4 9.7 0.382
09:34 1022 30.18 851 25.13 9.4 48.9 85 7.1 44.7 9.67 0.381
09:35 1022 30.18 851 25.13 9.4 49 89 7.6 45.8 9.69 0.381
09:36 1022 30.18 851 25.13 9.4 49 86 7.2 45 9.73 0.383
09:37 1022 30.18 851 25.13 9.5 49 87 7.4 45.3 9.72 0.383
09:38 1022 30.18 851 25.13 9.5 49 85 7.1 44.8 9.78 0.385
09:39 1022 30.18 851 25.13 9.5 49.1 85 7.1 44.7 9.76 0.384
09:40 1022 30.18 851 25.13 9.4 49 87 7.4 45.4 9.72 0.383
09:41 1022 30.18 851 25.13 9.4 48.9 84 6.8 44.3 9.69 0.381
09:42 1022 30.18 851 25.13 9.3 48.8 88 7.4 45.4 9.65 0.38
09:43 1022 30.18 851 25.13 9.4 48.8 88 7.4 45.3 9.66 0.38
09:44 1022 30.18 851 25.13 9.4 48.9 87 7.3 45.1 9.7 0.382
09:45 1022 30.18 851 25.13 9.3 48.8 85 6.9 44.5 9.6 0.378
09:46 1022 30.18 851 25.13 9.3 48.7 86 7.1 44.9 9.53 0.375
09:47 1022 30.18 851 25.13 9.3 48.7 85 6.9 44.4 9.6 0.378
09:48 1022 30.18 851 25.13 9.3 48.7 86 7 44.6 9.56 0.376
09:49 1022 30.18 851 25.13 9.3 48.7 87 7.2 44.9 9.58 0.377
09:50 1022 30.18 851 25.13 9.3 48.7 85 6.9 44.4 9.58 0.377
09:51 1022 30.18 851 25.13 9.3 48.7 84 6.8 44.2 9.56 0.376
09:52 1022 30.18 851 25.13 9.2 48.6 84 6.7 44.1 9.52 0.375
09:53 1022 30.18 851 25.13 9.2 48.6 86 7 44.6 9.5 0.374
09:54 1022 30.18 851 25.13 9.2 48.5 84 6.6 43.8 9.51 0.374
09:55 1022 30.18 851 25.13 9.2 48.5 82 6.3 43.4 9.45 0.372
09:56 1022 30.18 851 25.13 9.1 48.3 86 6.9 44.4 9.32 0.367
09:57 1022 30.18 851 25.13 9 48.2 83 6.3 43.3 9.28 0.365
09:58 1022 30.18 851 25.13 9 48.1 84 6.5 43.6 9.22 0.363
09:59 1022 30.18 851 25.13 9 48.1 82 6.1 43 9.22 0.363
10:00 1022 30.18 851 25.13 8.9 48 84 6.3 43.4 9.19 0.362
10:01 1022 30.18 851 25.13 8.9 48.1 85 6.5 43.7 9.26 0.365
10:02 1022 30.18 851 25.13 9 48.2 83 6.2 43.2 9.32 0.367
10:03 1022 30.18 851 25.13 9 48.2 83 6.2 43.1 9.24 0.364
10:04 1022 30.18 851 25.13 8.9 48.1 83 6.3 43.3 9.21 0.363
10:05 1022 30.18 851 25.13 8.9 48.1 83 6.2 43.1 9.19 0.362
10:06 1022 30.18 851 25.13 9 48.2 83 6.3 43.4 9.27 0.365
10:07 1022 30.18 851 25.13 9.1 48.3 83 6.3 43.3 9.32 0.367
10:08 1022 30.18 851 25.13 9.1 48.3 83 6.3 43.4 9.32 0.367
10:09 1022 30.18 851 25.13 9.1 48.4 85 6.7 44.1 9.37 0.369
10:10 1022 30.18 851 25.13 9.2 48.5 83 6.5 43.6 9.46 0.372
10:11 1022 30.18 851 25.13 9.2 48.6 83 6.6 43.8 9.54 0.376
10:12 1022 30.18 851 25.13 9.3 48.8 81 6.3 43.3 9.57 0.377
10:13 1022 30.18 851 25.13 9.3 48.7 82 6.3 43.4 9.55 0.376
10:14 1022 30.18 851 25.13 9.3 48.8 82 6.3 43.4 9.58 0.377
10:15 1022 30.18 851 25.13 9.4 48.9 82 6.5 43.6 9.67 0.381
10:16 1022 30.18 851 25.13 9.4 48.9 83 6.6 43.9 9.65 0.38
10:17 1022 30.18 851 25.13 9.4 48.9 81 6.4 43.4 9.63 0.379
10:18 1022 30.18 851 25.13 9.4 48.9 82 6.5 43.8 9.63 0.379
10:19 1022 30.18 851 25.13 9.5 49.1 80 6.2 43.1 9.79 0.385
10:20 1022 30.18 851 25.13 9.5 49.1 81 6.4 43.5 9.81 0.386
10:21 1022 30.18 851 25.13 9.6 49.2 82 6.6 43.9 9.81 0.386
10:22 1022 30.18 851 25.13 9.6 49.2 81 6.5 43.7 9.81 0.386
10:23 1022 30.18 851 25.13 9.6 49.4 81 6.6 43.8 9.9 0.39
10:24 1022 30.18 851 25.13 9.7 49.5 82 6.9 44.4 10.03 0.395
10:25 1022 30.18 851 25.13 9.8 49.6 79 6.4 43.5 9.99 0.393
10:26 1022 30.18 851 25.13 9.7 49.4 79 6.2 43.2 9.88 0.389
10:27 1022 30.18 851 25.13 9.6 49.3 80 6.4 43.5 9.83 0.387
10:28 1022 30.18 851 25.13 9.6 49.3 80 6.3 43.3 9.9 0.39
10:29 1022 30.18 851 25.13 9.7 49.4 81 6.6 43.9 9.94 0.391
10:30 1022 30.18 851 25.13 9.7 49.4 81 6.6 44 9.98 0.393
10:31 1022 30.18 851 25.13 9.8 49.6 79 6.3 43.3 10.09 0.397
10:32 1022 30.18 851 25.13 9.8 49.6 80 6.5 43.8 9.99 0.393
10:33 1022 30.18 851 25.13 9.7 49.5 80 6.4 43.5 10.1 0.398
10:34 1022 30.18 851 25.13 9.7 49.5 80 6.4 43.5 10.01 0.394
10:35 1022 30.18 851 25.13 9.7 49.4 82 6.8 44.2 10.02 0.394
10:36 1022 30.18 851 25.13 9.6 49.3 80 6.3 43.3 9.95 0.392
10:37 1022 30.18 851 25.13 9.6 49.3 82 6.6 43.9 9.93 0.391
10:38 1022 30.18 851 25.13 9.6 49.3 81 6.6 43.8 9.92 0.391
10:39 1022 30.18 851 25.13 9.6 49.3 79 6.2 43.1 9.9 0.39
10:40 1022 30.18 851 25.13 9.6 49.3 81 6.5 43.7 9.91 0.39
10:41 1022 30.18 851 25.13 9.7 49.4 82 6.8 44.3 10.01 0.394
10:42 1022 30.18 851 25.13 9.8 49.6 80 6.5 43.8 10.02 0.394
10:43 1022 30.18 851 25.13 9.7 49.4 77 5.9 42.7 9.97 0.393
10:44 1022 30.18 851 25.13 9.6 49.3 79 6.2 43.2 9.95 0.392
10:45 1022 30.18 851 25.13 9.7 49.4 79 6.1 43.1 9.97 0.393
10:46 1022 30.18 851 25.13 9.6 49.3 80 6.4 43.5 9.92 0.391
10:47 1022 30.18 851 25.13 9.6 49.3 82 6.7 44.1 9.93 0.391
10:48 1022 30.18 851 25.13 9.7 49.4 79 6.1 43 10.05 0.396
10:49 1022 30.18 851 25.13 9.7 49.4 80 6.4 43.5 9.96 0.392
10:50 1022 30.18 851 25.13 9.6 49.2 82 6.6 43.9 9.95 0.392
10:51 1022 30.18 851 25.13 9.6 49.3 78 6 42.7 9.96 0.392
10:52 1022 30.18 851 25.13 9.6 49.2 81 6.5 43.7 9.89 0.389
10:53 1022 30.18 851 25.13 9.6 49.2 80 6.3 43.3 9.9 0.39
10:54 1022 30.18 851 25.13 9.6 49.2 77 5.8 42.4 9.95 0.392
10:55 1022 30.18 851 25.13 9.5 49.1 80 6.3 43.3 9.85 0.388
10:56 1022 30.18 851 25.13 9.5 49.2 80 6.3 43.4 9.89 0.389
10:57 1022 30.18 851 25.13 9.5 49.2 78 5.9 42.6 9.83 0.387
10:58 1022 30.18 851 25.13 9.4 49 79 6 42.8 9.76 0.384
10:59 1022 30.18 851 25.13 9.4 49 81 6.3 43.3 9.81 0.386
11:00 1022 30.18 851 25.13 9.5 49.1 77 5.7 42.3 9.82 0.387
11:01 1022 30.18 851 25.13 9.4 49 79 6 42.7 9.78 0.385
11:02 1022 30.18 851 25.13 9.4 48.9 78 5.9 42.5 9.76 0.384
11:03 1022 30.18 851 25.13 9.4 48.9 80 6.2 43.2 9.8 0.386
11:04 1022 30.18 851 25.13 9.5 49 78 5.8 42.4 9.8 0.386
11:05 1022 30.18 851 25.13 9.4 48.9 79 6 42.9 9.74 0.383
11:06 1022 30.18 851 25.13 9.4 49 81 6.3 43.3 9.84 0.387
11:07 1022 30.18 851 25.13 9.5 49.1 80 6.2 43.2 9.89 0.389
11:08 1022 30.18 851 25.13 9.6 49.2 80 6.3 43.3 9.9 0.39
11:09 1022 30.18 851 25.13 9.6 49.2 79 6.1 43 9.99 0.393
11:10 1022 30.18 851 25.13 9.6 49.3 78 6 42.8 9.93 0.391
11:11 1022 30.18 851 25.13 9.6 49.2 82 6.6 44 9.91 0.39
11:12 1022 30.18 851 25.13 9.5 49.2 77 5.8 42.5 9.93 0.391
11:13 1022 30.18 851 25.13 9.5 49.1 80 6.2 43.2 9.85 0.388
11:14 1022 30.18 851 25.13 9.6 49.2 79 6.1 42.9 9.95 0.392
11:15 1022 30.18 851 25.13 9.6 49.3 79 6.2 43.1 9.93 0.391
11:16 1022 30.18 851 25.13 9.5 49.1 77 5.7 42.2 9.84 0.387
11:17 1022 30.18 851 25.13 9.4 48.9 80 6.2 43.2 9.73 0.383
11:18 1022 30.18 851 25.13 9.4 49 79 6 42.8 9.85 0.388
11:19 1022 30.18 851 25.13 9.5 49.1 80 6.2 43.1 9.89 0.389
11:20 1022 30.18 851 25.13 9.5 49.1 78 5.9 42.6 9.87 0.389
11:21 1022 30.18 851 25.13 9.5 49.1 78 5.9 42.6 9.84 0.387
11:22 1022 30.18 851 25.13 9.5 49.1 77 5.8 42.4 9.84 0.387
11:23 1022 30.18 851 25.13 9.5 49.1 81 6.4 43.5 9.86 0.388
11:24 1022 30.18 851 25.13 9.6 49.2 79 6.1 43.1 9.88 0.389
11:25 1022 30.18 851 25.13 9.5 49.2 78 5.8 42.5 9.87 0.389
11:26 1022 30.18 851 25.13 9.4 49 80 6.2 43.1 9.82 0.387
11:27 1022 30.18 851 25.13 9.4 49 79 6 42.8 9.84 0.387
11:28 1022 30.18 851 25.13 9.5 49 78 5.9 42.7 9.8 0.386
11:29 1022 30.18 851 25.13 9.4 48.8 80 6.1 43 9.72 0.383
11:30 1022 30.18 851 25.13 9.4 48.9 80 6.2 43.2 9.77 0.385
11:31 1022 30.18 851 25.13 9.5 49.1 78 5.8 42.5 9.86 0.388
11:32 1022 30.18 851 25.13 9.5 49.1 78 5.8 42.4 9.85 0.388
11:33 1022 30.18 851 25.13 9.5 49.1 76 5.5 41.9 9.82 0.387
11:34 1022 30.18 851 25.13 9.4 49 78 5.9 42.5 9.81 0.386
11:35 1022 30.18 851 25.13 9.5 49 77 5.7 42.3 9.82 0.387
11:36 1022 30.18 851 25.13 9.5 49.1 76 5.5 41.9 9.83 0.387
11:37 1022 30.18 851 25.13 9.4 48.9 78 5.9 42.6 9.72 0.383
11:38 1022 30.18 851 25.13 9.4 48.9 78 5.7 42.3 9.76 0.384
11:39 1022 30.18 851 25.13 9.4 48.9 79 5.9 42.6 9.78 0.385
11:40 1022 30.18 851 25.13 9.4 49 78 5.7 42.3 9.8 0.386
11:41 1022 30.18 851 25.13 9.4 49 78 5.8 42.4 9.8 0.386
11:42 1022 30.18 851 25.13 9.5 49.1 78 6 42.7 9.89 0.389
11:43 1022 30.18 851 25.13 9.6 49.3 78 5.9 42.7 10.02 0.394
11:44 1022 30.18 851 25.13 9.8 49.6 78 6.2 43.1 10.12 0.398
11:45 1022 30.18 851 25.13 9.8 49.6 76 5.7 42.3 10.18 0.401
11:46 1022 30.18 851 25.13 9.8 49.7 76 5.9 42.6 10.26 0.404
11:47 1022 30.18 851 25.13 9.9 49.8 76 5.9 42.7 10.29 0.405
11:48 1022 30.18 851 25.13 9.9 49.8 75 5.8 42.4 10.19 0.401
11:49 1022 30.18 851 25.13 9.8 49.7 75 5.7 42.2 10.11 0.398
11:50 1022 30.18 851 25.13 9.7 49.5 76 5.8 42.4 10.08 0.397
11:51 1022 30.18 851 25.13 9.7 49.4 76 5.7 42.2 10.08 0.397
11:52 1022 30.18 851 25.13 9.7 49.4 77 5.8 42.4 10.03 0.395
11:53 1022 30.18 851 25.13 9.7 49.4 74 5.3 41.6 10.02 0.394
11:54 1022 30.18 851 25.13 9.6 49.3 75 5.5 41.8 9.98 0.393
11:55 1022 30.18 851 25.13 9.7 49.4 77 5.8 42.4 10.06 0.396
11:56 1022 30.18 851 25.13 9.7 49.5 77 5.9 42.6 10.13 0.399
11:57 1022 30.18 851 25.13 9.8 49.6 77 6 42.7 10.12 0.398
11:58 1022 30.18 851 25.13 9.8 49.6 77 6 42.8 10.14 0.399
11:59 1022 30.18 851 25.13 9.9 49.9 75 5.8 42.5 10.32 0.406
12:00 1022 30.18 851 25.13 10 50 76 6 42.8 10.33 0.407
12:01 1022 30.18 851 25.13 10 50 74 5.7 42.2 10.36 0.408
12:02 1022 30.18 851 25.13 10 50 76 6 42.8 10.28 0.405
12:03 1022 30.18 851 25.13 10 50 75 5.8 42.5 10.36 0.408
12:04 1022 30.18 851 25.13 10.1 50.1 75 5.9 42.6 10.39 0.409
12:05 1022 30.18 851 25.13 10.1 50.2 78 6.4 43.5 10.47 0.412
12:06 1022 30.18 851 25.13 10.1 50.2 76 6 42.8 10.49 0.413
12:07 1022 30.18 851 25.13 10.1 50.1 75 5.8 42.5 10.4 0.409
12:08 1022 30.18 851 25.13 10 50 78 6.3 43.3 10.33 0.407
12:09 1022 30.18 851 25.13 10 50 76 6 42.8 10.32 0.406
12:10 1022 30.18 851 25.13 10.1 50.1 76 6.1 43 10.46 0.412
12:11 1022 30.18 851 25.13 10.1 50.2 76 6 42.8 10.5 0.413
12:12 1022 30.18 851 25.13 10.2 50.3 80 6.9 44.4 10.57 0.416
12:13 1022 30.18 851 25.13 10.3 50.5 77 6.4 43.5 10.67 0.42
12:14 1022 30.18 851 25.13 10.3 50.6 78 6.8 44.2 10.74 0.423
12:15 1022 30.18 851 25.13 10.3 50.6 76 6.4 43.5 10.68 0.42
12:16 1022 30.18 851 25.13 10.3 50.5 77 6.4 43.5 10.58 0.417
12:17 1022 30.18 851 25.13 10.2 50.3 77 6.4 43.6 10.59 0.417
12:18 1022 30.18 851 25.13 10.2 50.4 76 6.3 43.3 10.62 0.418
12:19 1022 30.18 851 25.13 10.2 50.3 75 5.9 42.6 10.53 0.415
12:20 1022 30.18 851 25.13 10.1 50.2 76 6 42.9 10.44 0.411
12:21 1022 30.18 851 25.13 10 50 74 5.6 42.1 10.33 0.407
12:22 1022 30.18 851 25.13 9.9 49.7 77 6 42.8 10.23 0.403
12:23 1022 30.18 851 25.13 9.8 49.6 76 5.8 42.4 10.14 0.399
12:24 1022 30.18 851 25.13 9.7 49.4 76 5.7 42.2 10.03 0.395
12:25 1022 30.18 851 25.13 9.6 49.3 75 5.3 41.6 9.95 0.392
12:26 1022 30.18 851 25.13 9.4 49 77 5.7 42.2 9.79 0.385
12:27 1022 30.18 851 25.13 9.4 48.9 76 5.4 41.8 9.79 0.385
12:28 1022 30.18 851 25.13 9.3 48.7 77 5.5 41.9 9.67 0.381
12:29 1022 30.18 851 25.13 9.2 48.5 78 5.5 41.9 9.58 0.377
12:30 1022 30.18 851 25.13 9.1 48.4 80 5.8 42.4 9.52 0.375
12:31 1022 30.18 851 25.13 9.2 48.5 79 5.7 42.2 9.59 0.378
12:32 1022 30.18 851 25.13 9.2 48.5 78 5.5 41.9 9.58 0.377
12:33 1022 30.18 851 25.13 9.2 48.5 80 6 42.8 9.5 0.374
12:34 1022 30.18 851 25.13 9.2 48.5 77 5.4 41.8 9.62 0.379
12:35 1022 30.18 851 25.13 9.3 48.7 78 5.7 42.2 9.63 0.379
12:36 1022 30.18 851 25.13 9.3 48.7 77 5.5 42 9.69 0.381
12:37 1022 30.18 851 25.13 9.4 48.9 79 5.8 42.5 9.77 0.385
12:38 1022 30.18 851 25.13 9.4 48.9 79 5.9 42.7 9.77 0.385
12:39 1022 30.18 851 25.13 9.5 49.1 77 5.7 42.2 9.92 0.391
12:40 1022 30.18 851 25.13 9.6 49.2 78 5.9 42.6 9.94 0.391
12:41 1022 30.18 851 25.13 9.5 49.2 81 6.4 43.5 9.93 0.391
12:42 1022 30.18 851 25.13 9.6 49.3 82 6.7 44 10.02 0.394
12:43 1022 30.18 851 25.13 9.8 49.6 75 5.7 42.2 10.21 0.402
12:44 1022 30.18 851 25.13 9.8 49.6 74 5.4 41.8 10.06 0.396
12:45 1022 30.18 851 25.13 9.6 49.2 77 5.8 42.4 9.86 0.388
12:46 1022 30.18 851 25.13 9.4 49 80 6.1 43 9.77 0.385
12:47 1022 30.18 851 25.13 9.4 48.9 78 5.8 42.5 9.77 0.385
12:48 1022 30.18 851 25.13 9.4 49 76 5.5 41.9 9.81 0.386
12:49 1022 30.18 851 25.13 9.4 49 78 5.8 42.4 9.79 0.385
12:50 1022 30.18 851 25.13 9.4 49 76 5.4 41.7 9.8 0.386
12:51 1022 30.18 851 25.13 9.4 49 75 5.3 41.5 9.8 0.386
12:52 1022 30.18 851 25.13 9.4 49 77 5.7 42.3 9.85 0.388
12:53 1022 30.18 851 25.13 9.4 49 76 5.4 41.7 9.79 0.385
12:54 1022 30.18 851 25.13 9.3 48.8 78 5.7 42.2 9.75 0.384
12:55 1022 30.18 851 25.13 9.4 48.9 77 5.6 42 9.81 0.386
12:56 1022 30.18 851 25.13 9.4 48.9 80 6.1 43.1 9.81 0.386
12:57 1022 30.18 851 25.13 9.5 49.2 74 5.1 41.2 9.93 0.391
12:58 1022 30.18 851 25.13 9.5 49.2 78 5.9 42.6 9.92 0.391
12:59 1022 30.18 851 25.13 9.6 49.3 78 5.9 42.6 9.95 0.392
13:00 1022 30.18 851 25.13 9.7 49.4 74 5.2 41.3 10.01 0.394
13:01 1022 30.18 851 25.13 9.7 49.4 77 5.9 42.6 10.03 0.395
13:02 1022 30.18 851 25.13 9.8 49.7 77 5.9 42.7 10.21 0.402
13:03 1022 30.18 851 25.13 9.9 49.9 79 6.5 43.7 10.35 0.407
13:04 1022 30.18 851 25.13 10.1 50.2 72 5.3 41.6 10.51 0.414
13:05 1022 30.18 851 25.13 10.1 50.2 75 5.9 42.6 10.43 0.411
13:06 1022 30.18 851 25.13 10 50 72 5.1 41.2 10.3 0.406
13:07 1022 30.18 851 25.13 9.8 49.7 75 5.5 42 10.15 0.4
13:08 1022 30.18 851 25.13 9.8 49.6 76 5.7 42.2 10.1 0.398
13:09 1022 30.18 851 25.13 9.7 49.5 74 5.2 41.4 10.1 0.398
13:10 1022 30.18 851 25.13 9.7 49.4 77 5.9 42.6 10.07 0.396
13:11 1022 30.18 851 25.13 9.7 49.5 72 5 41 10.11 0.398
13:12 1022 30.18 851 25.13 9.7 49.5 75 5.5 41.8 10.06 0.396
13:13 1022 30.18 851 25.13 9.7 49.4 76 5.7 42.3 10.03 0.395
13:14 1022 30.18 851 25.13 9.7 49.5 73 5.2 41.4 10.19 0.401
13:15 1022 30.18 851 25.13 9.8 49.7 73 5.3 41.5 10.18 0.401
13:16 1022 30.18 851 25.13 9.9 49.7 74 5.5 41.9 10.28 0.405
13:17 1022 30.18 851 25.13 9.9 49.9 72 5.2 41.4 10.29 0.405
13:18 1022 30.18 851 25.13 9.8 49.6 74 5.4 41.7 10.2 0.402
13:19 1022 30.18 851 25.13 9.8 49.7 73 5.3 41.5 10.2 0.402
13:20 1022 30.18 851 25.13 9.8 49.7 73 5.3 41.6 10.19 0.401
13:21 1022 30.18 851 25.13 9.8 49.7 73 5.2 41.3 10.22 0.402
13:22 1022 30.18 851 25.13 9.8 49.7 72 5 41 10.2 0.402
13:23 1022 30.18 851 25.13 9.9 49.7 73 5.3 41.5 10.24 0.403
13:24 1022 30.18 851 25.13 9.9 49.7 76 5.8 42.4 10.29 0.405
13:25 1022 30.18 851 25.13 9.9 49.8 72 5.2 41.3 10.28 0.405
13:26 1022 30.18 851 25.13 9.9 49.8 74 5.5 41.9 10.28 0.405
13:27 1022 30.18 851 25.13 10 50 76 6.1 42.9 10.42 0.41
13:28 1022 30.18 851 25.13 10.1 50.3 75 6 42.8 10.58 0.417
13:29 1022 30.18 851 25.13 10.2 50.4 75 6 42.8 10.63 0.419
13:30 1022 30.18 851 25.13 10.3 50.5 71 5.2 41.4 10.66 0.42
13:31 1022 30.18 851 25.13 10.2 50.3 73 5.5 42 10.52 0.414
13:32 1022 30.18 851 25.13 10.1 50.2 71 5.2 41.3 10.5 0.413
13:33 1022 30.18 851 25.13 10 50 73 5.5 41.9 10.33 0.407
13:34 1022 30.18 851 25.13 9.9 49.8 73 5.2 41.4 10.27 0.404
13:35 1022 30.18 851 25.13 9.8 49.7 71 4.9 40.9 10.2 0.402
13:36 1022 30.18 851 25.13 9.8 49.6 74 5.4 41.7 10.1 0.398
13:37 1022 30.18 851 25.13 9.7 49.5 76 5.7 42.2 10.07 0.396
13:38 1022 30.18 851 25.13 9.7 49.5 76 5.6 42.2 10.16 0.4
13:39 1022 30.18 851 25.13 9.8 49.7 76 5.8 42.4 10.22 0.402
13:40 1022 30.18 851 25.13 9.9 49.9 74 5.5 41.9 10.34 0.407
13:41 1022 30.18 851 25.13 9.9 49.8 72 5.1 41.1 10.25 0.404
13:42 1022 30.18 851 25.13 9.8 49.6 71 4.9 40.8 10.06 0.396
13:43 1022 30.18 851 25.13 9.7 49.4 75 5.4 41.7 9.98 0.393
13:44 1022 30.18 851 25.13 9.6 49.3 75 5.4 41.7 10.01 0.394
13:45 1022 30.18 851 25.13 9.6 49.3 73 5 41 9.99 0.393
13:46 1022 30.18 851 25.13 9.6 49.2 73 5.1 41.1 9.94 0.391
13:47 1022 30.18 851 25.13 9.5 49.1 73 5 41 9.92 0.391
13:48 1022 30.18 851 25.13 9.6 49.2 72 4.8 40.7 9.95 0.392
13:49 1022 30.18 851 25.13 9.5 49.2 74 5.1 41.1 9.94 0.391
13:50 1022 30.18 851 25.13 9.5 49.2 72 4.8 40.6 9.9 0.39
13:51 1022 30.18 851 25.13 9.5 49.2 75 5.3 41.5 9.89 0.389
13:52 1022 30.18 851 25.13 9.5 49.1 73 4.9 40.8 9.86 0.388
13:53 1022 30.18 851 25.13 9.4 48.9 73 4.8 40.7 9.78 0.385
13:54 1022 30.18 851 25.13 9.3 48.7 74 4.9 40.8 9.67 0.381
13:55 1022 30.18 851 25.13 9.3 48.7 74 4.8 40.6 9.64 0.38
13:56 1022 30.18 851 25.13 9.2 48.6 76 5.2 41.4 9.63 0.379
13:57 1022 30.18 851 25.13 9.2 48.6 73 4.7 40.4 9.59 0.378
13:58 1022 30.18 851 25.13 9.2 48.6 77 5.4 41.7 9.61 0.378
13:59 1022 30.18 851 25.13 9.3 48.7 74 4.9 40.9 9.67 0.381
14:00 1022 30.18 851 25.13 9.3 48.7 75 5.1 41.2 9.62 0.379
14:01 1022 30.18 851 25.13 9.3 48.7 73 4.7 40.5 9.63 0.379
14:02 1022 30.18 851 25.13 9.2 48.6 75 5.1 41.1 9.56 0.376
14:03 1022 30.18 851 25.13 9.2 48.5 74 4.7 40.5 9.56 0.376
14:04 1022 30.18 851 25.13 9.2 48.5 72 4.4 39.9 9.54 0.376
14:05 1022 30.18 851 25.13 9.1 48.3 73 4.6 40.2 9.46 0.372
14:06 1022 30.18 851 25.13 9 48.2 75 4.8 40.6 9.41 0.37
14:07 1022 30.18 851 25.13 9 48.3 73 4.5 40.2 9.45 0.372
14:08 1022 30.18 851 25.13 9 48.2 74 4.6 40.2 9.37 0.369
14:09 1022 30.18 851 25.13 8.9 48.1 74 4.5 40.1 9.31 0.367
14:10 1022 30.18 851 25.13 8.9 48 73 4.4 39.9 9.26 0.365
14:11 1022 30.18 851 25.13 8.9 48 75 4.7 40.5 9.27 0.365
14:12 1022 30.18 851 25.13 8.9 48 73 4.4 39.9 9.25 0.364
14:13 1022 30.18 851 25.13 8.8 47.8 74 4.4 40 9.22 0.363
14:14 1022 30.18 851 25.13 8.8 47.8 75 4.6 40.3 9.21 0.363
14:15 1022 30.18 851 25.13 8.8 47.9 76 4.8 40.6 9.23 0.363
14:16 1022 30.18 851 25.13 8.8 47.9 73 4.3 39.7 9.26 0.365
14:17 1022 30.18 851 25.13 8.9 48 76 4.9 40.8 9.25 0.364
14:18 1022 30.18 851 25.13 8.9 48.1 73 4.3 39.8 9.3 0.366
14:19 1022 30.18 851 25.13 8.8 47.9 73 4.3 39.7 9.16 0.361
14:20 1022 30.18 851 25.13 8.7 47.6 75 4.4 40 9.05 0.356
14:21 1022 30.18 851 25.13 8.7 47.6 74 4.4 39.9 9.05 0.356
14:22 1022 30.18 851 25.13 8.6 47.4 75 4.4 39.9 9.01 0.355
14:23 1022 30.18 851 25.13 8.6 47.4 74 4.1 39.4 8.93 0.352
14:24 1022 30.18 851 25.13 8.5 47.2 76 4.5 40.2 8.85 0.348
14:25 1022 30.18 851 25.13 8.4 47.2 75 4.3 39.8 8.82 0.347
14:26 1022 30.18 851 25.13 8.4 47.1 74 4.1 39.5 8.78 0.346
14:27 1022 30.18 851 25.13 8.4 47 76 4.4 39.9 8.73 0.344
14:28 1022 30.18 851 25.13 8.3 47 75 4.2 39.5 8.76 0.345
14:29 1022 30.18 851 25.13 8.3 47 78 4.8 40.6 8.75 0.344
14:30 1022 30.18 851 25.13 8.3 47 77 4.5 40.1 8.74 0.344
14:31 1022 30.18 851 25.13 8.3 47 74 4.1 39.3 8.74 0.344
14:32 1022 30.18 851 25.13 8.3 46.9 74 4 39.2 8.63 0.34
14:33 1022 30.18 851 25.13 8.1 46.6 74 3.9 39 8.51 0.335
14:34 1022 30.18 851 25.13 8 46.4 76 4 39.2 8.39 0.33
14:35 1022 30.18 851 25.13 7.9 46.1 75 3.7 38.6 8.25 0.325
14:36 1022 30.18 851 25.13 7.8 46 77 3.9 39.1 8.17 0.322
14:37 1022 30.18 851 25.13 7.7 45.9 77 4 39.1 8.12 0.32
14:38 1022 30.18 851 25.13 7.7 45.9 76 3.8 38.8 8.13 0.32
14:39 1022 30.18 851 25.13 7.7 45.8 76 3.7 38.6 8.16 0.321
14:40 1022 30.18 851 25.13 7.7 45.9 77 4 39.1 8.13 0.32
14:41 1022 30.18 851 25.13 7.8 46 77 4 39.2 8.18 0.322
14:42 1022 30.18 851 25.13 7.8 46 75 3.7 38.7 8.15 0.321
14:43 1022 30.18 851 25.13 7.7 45.8 75 3.5 38.4 8.09 0.319
14:44 1022 30.18 851 25.13 7.6 45.6 76 3.6 38.5 8 0.315
14:45 1022 30.18 851 25.13 7.6 45.6 78 4 39.1 7.98 0.314
14:46 1022 30.18 851 25.13 7.6 45.7 77 3.9 39 8.02 0.316
14:47 1022 30.18 851 25.13 7.6 45.8 77 3.9 39 8.04 0.317
14:48 1022 30.18 851 25.13 7.7 45.8 77 3.9 39.1 8.02 0.316
14:49 1022 30.18 851 25.13 7.6 45.7 77 3.9 39 8.04 0.317
14:50 1022 30.18 851 25.13 7.6 45.6 76 3.6 38.4 8 0.315
14:51 1022 30.18 852 25.16 7.5 45.5 77 3.7 38.7 7.95 0.313
14:52 1022 30.18 851 25.13 7.6 45.6 77 3.7 38.7 7.9 0.311
14:53 1022 30.18 851 25.13 7.5 45.5 76 3.6 38.4 7.94 0.313
14:54 1022 30.18 851 25.13 7.6 45.6 78 3.9 39.1 7.97 0.314
14:55 1022 30.18 851 25.13 7.6 45.6 77 3.9 39 8.02 0.316
14:56 1022 30.18 851 25.13 7.6 45.7 77 3.8 38.8 8.02 0.316
14:57 1022 30.18 851 25.13 7.6 45.7 76 3.7 38.7 8.02 0.316
14:58 1022 30.18 851 25.13 7.6 45.7 76 3.6 38.5 8.04 0.317
14:59 1022 30.18 851 25.13 7.6 45.6 77 3.8 38.8 8.02 0.316
15:00 1022 30.18 851 25.13 7.5 45.6 75 3.4 38.2 7.97 0.314
15:01 1022 30.18 851 25.13 7.5 45.5 75 3.5 38.2 7.91 0.311
15:02 1022 30.18 851 25.13 7.5 45.4 77 3.7 38.7 7.85 0.309
15:03 1022 30.18 851 25.13 7.5 45.4 76 3.5 38.3 7.82 0.308
15:04 1022 30.18 851 25.13 7.4 45.4 75 3.4 38.1 7.85 0.309
15:05 1022 30.18 851 25.13 7.5 45.4 77 3.7 38.6 7.91 0.311
15:06 1022 30.18 851 25.13 7.5 45.5 76 3.5 38.3 7.95 0.313
15:07 1022 30.18 851 25.13 7.5 45.6 76 3.6 38.5 7.95 0.313
15:08 1022 30.18 851 25.13 7.6 45.6 77 3.8 38.8 8 0.315
15:09 1022 30.18 851 25.13 7.6 45.7 76 3.7 38.7 8.03 0.316
15:10 1022 30.18 851 25.13 7.7 45.8 79 4.2 39.5 8.08 0.318
15:11 1022 30.18 851 25.13 7.7 45.9 76 3.7 38.7 8.15 0.321
15:12 1022 30.18 851 25.13 7.7 45.8 78 4.1 39.4 8.07 0.318
15:13 1022 30.18 851 25.13 7.6 45.7 77 3.8 38.8 8.02 0.316
15:14 1022 30.18 851 25.13 7.6 45.6 78 3.9 39.1 7.95 0.313
15:15 1022 30.18 851 25.13 7.6 45.7 75 3.5 38.3 7.95 0.313
15:16 1022 30.18 851 25.13 7.5 45.5 77 3.7 38.6 7.88 0.31
15:17 1022 30.18 851 25.13 7.5 45.4 77 3.7 38.6 7.85 0.309
15:18 1022 30.18 851 25.13 7.4 45.4 77 3.7 38.6 7.82 0.308
15:19 1022 30.18 851 25.13 7.3 45.2 76 3.3 38 7.76 0.306
15:20 1022 30.18 851 25.13 7.3 45.1 76 3.4 38 7.69 0.303
15:21 1022 30.18 851 25.13 7.2 45 77 3.4 38.1 7.65 0.301
15:22 1022 30.18 851 25.13 7.2 45 77 3.5 38.4 7.63 0.3
15:23 1022 30.18 851 25.13 7.2 45 76 3.3 37.9 7.63 0.3
15:24 1022 30.18 851 25.13 7.2 44.9 77 3.5 38.3 7.56 0.298
15:25 1022 30.18 852 25.16 7.1 44.8 78 3.5 38.4 7.54 0.297
15:26 1022 30.18 852 25.16 7.1 44.8 79 3.6 38.6 7.55 0.297
15:27 1022 30.18 852 25.16 7.1 44.8 77 3.4 38.1 7.56 0.298
15:28 1022 30.18 852 25.16 7.1 44.8 78 3.5 38.2 7.52 0.296
15:29 1022 30.18 852 25.16 7.1 44.7 79 3.6 38.5 7.46 0.294
15:30 1022 30.18 852 25.16 7.1 44.7 77 3.4 38 7.5 0.295
15:31 1022 30.18 851 25.13 7 44.7 78 3.4 38.1 7.46 0.294
15:32 1022 30.18 851 25.13 7 44.6 77 3.3 38 7.42 0.292
15:33 1022 30.18 851 25.13 6.9 44.5 77 3.2 37.8 7.33 0.289
15:34 1022 30.18 851 25.13 6.9 44.5 77 3.1 37.7 7.26 0.286
15:35 1022 30.18 851 25.13 6.9 44.3 77 3.2 37.8 7.29 0.287
15:36 1022 30.18 851 25.13 6.9 44.4 78 3.4 38 7.32 0.288
15:37 1022 30.18 851 25.13 6.9 44.5 76 3 37.4 7.31 0.288
15:38 1022 30.18 851 25.13 6.9 44.4 77 3.1 37.5 7.29 0.287
15:39 1022 30.18 851 25.13 6.9 44.4 76 2.9 37.2 7.25 0.285
15:40 1022 30.18 851 25.13 6.8 44.3 77 3 37.4 7.24 0.285
15:41 1022 30.18 851 25.13 6.7 44.1 77 2.9 37.3 7.14 0.281
15:42 1022 30.18 851 25.13 6.7 44.1 77 3 37.5 7.17 0.282
15:43 1022 30.18 851 25.13 6.7 44.1 78 3.1 37.6 7.17 0.282
15:44 1022 30.18 851 25.13 6.7 44.1 76 2.9 37.2 7.14 0.281
15:45 1022 30.18 851 25.13 6.7 44.1 76 2.8 37.1 7.12 0.28
15:46 1022 30.18 851 25.13 6.7 44 77 2.9 37.2 7.11 0.28
15:47 1022 30.18 851 25.13 6.7 44 78 3.1 37.6 7.07 0.278
15:48 1022 30.18 851 25.13 6.7 44 77 3 37.4 7.14 0.281
15:49 1022 30.18 851 25.13 6.7 44.1 75 2.6 36.7 7.11 0.28
15:50 1022 30.18 851 25.13 6.7 44 76 2.8 37.1 7.04 0.277
15:51 1022 30.18 851 25.13 6.6 43.9 75 2.6 36.7 7.06 0.278
15:52 1022 30.18 851 25.13 6.6 43.9 76 2.7 36.9 7.02 0.276
15:53 1022 30.18 851 25.13 6.6 43.8 76 2.7 36.9 6.985 0.275
15:54 1022 30.18 851 25.13 6.5 43.8 77 2.7 36.9 6.963 0.274
15:55 1022 30.18 851 25.13 6.5 43.7 78 3 37.4 6.929 0.273
15:56 1022 30.18 851 25.13 6.6 43.9 79 3.1 37.6 7.03 0.277
15:57 1022 30.18 851 25.13 6.6 43.9 77 2.9 37.2 7.05 0.278
15:58 1022 30.18 851 25.13 6.7 44 76 2.7 36.9 7.07 0.278
15:59 1022 30.18 851 25.13 6.7 44 78 3.2 37.7 7.13 0.281
16:00 1022 30.18 851 25.13 6.7 44.1 77 2.9 37.3 7.18 0.283
16:01 1022 30.18 851 25.13 6.8 44.2 77 3.1 37.6 7.21 0.284
16:02 1022 30.18 851 25.13 6.8 44.3 76 2.9 37.2 7.23 0.285
16:03 1022 30.18 851 25.13 6.8 44.2 75 2.7 36.8 7.19 0.283
16:04 1022 30.18 852 25.16 6.8 44.2 75 2.7 36.9 7.17 0.282
16:05 1022 30.18 852 25.16 6.8 44.3 75 2.7 36.8 7.22 0.284
16:06 1022 30.18 852 25.16 6.8 44.2 75 2.8 37 7.22 0.284
16:07 1022 30.18 852 25.16 6.8 44.3 76 2.8 37.1 7.22 0.284
16:08 1022 30.18 852 25.16 6.9 44.3 75 2.8 37 7.25 0.285
16:09 1022 30.18 852 25.16 6.8 44.3 77 3 37.4 7.21 0.284
16:10 1022 30.18 852 25.16 6.8 44.2 74 2.4 36.4 7.18 0.283
16:11 1022 30.18 852 25.16 6.7 44.1 77 3.1 37.5 7.1 0.28
16:12 1022 30.18 852 25.16 6.7 44 76 2.8 37.1 7.12 0.28
16:13 1022 30.18 852 25.16 6.7 44.1 75 2.6 36.6 7.07 0.278
16:14 1022 30.18 852 25.16 6.7 44 76 2.8 37 7.02 0.276
16:15 1022 30.18 852 25.16 6.6 43.9 76 2.7 36.9 6.994 0.275
16:16 1022 30.18 852 25.16 6.6 43.8 76 2.6 36.7 6.955 0.274
16:17 1022 30.18 852 25.16 6.5 43.7 76 2.5 36.6 6.887 0.271
16:18 1022 30.18 852 25.16 6.4 43.6 76 2.6 36.7 6.842 0.269
16:19 1022 30.18 852 25.16 6.4 43.6 77 2.7 36.8 6.819 0.268
16:20 1022 30.18 852 25.16 6.4 43.6 77 2.7 36.9 6.882 0.271
16:21 1022 30.18 852 25.16 6.5 43.6 77 2.7 36.9 6.899 0.272
16:22 1022 30.18 851 25.13 6.5 43.7 76 2.6 36.6 6.893 0.271
16:23 1022 30.18 851 25.13 6.5 43.7 76 2.6 36.7 6.893 0.271
16:24 1022 30.18 851 25.13 6.5 43.6 76 2.5 36.5 6.893 0.271
16:25 1022 30.18 852 25.16 6.5 43.7 75 2.4 36.4 6.899 0.272
16:26 1022 30.18 852 25.16 6.5 43.7 76 2.5 36.5 6.95 0.274
16:27 1022 30.18 852 25.16 6.5 43.7 76 2.7 36.8 6.894 0.271
16:28 1022 30.18 852 25.16 6.5 43.7 76 2.5 36.6 6.9 0.272
16:29 1022 30.18 852 25.16 6.5 43.7 75 2.5 36.4 6.877 0.271
16:30 1022 30.18 852 25.16 6.5 43.6 76 2.6 36.6 6.826 0.269
16:31 1022 30.18 852 25.16 6.4 43.6 76 2.6 36.7 6.872 0.271
16:32 1022 30.18 852 25.16 6.4 43.6 77 2.8 37 6.877 0.271
16:33 1022 30.18 852 25.16 6.5 43.6 76 2.5 36.6 6.838 0.269
16:34 1022 30.18 852 25.16 6.4 43.5 75 2.3 36.2 6.832 0.269
16:35 1022 30.18 852 25.16 6.4 43.5 75 2.3 36.2 6.742 0.265
16:36 1022 30.18 852 25.16 6.3 43.4 76 2.5 36.5 6.759 0.266
16:37 1022 30.18 852 25.16 6.3 43.4 77 2.5 36.6 6.697 0.264
16:38 1022 30.18 852 25.16 6.3 43.3 75 2.1 35.8 6.747 0.266
16:39 1022 30.18 851 25.13 6.3 43.3 75 2.1 35.8 6.691 0.263
16:40 1022 30.18 851 25.13 6.3 43.4 76 2.4 36.3 6.697 0.264
16:41 1022 30.18 851 25.13 6.3 43.4 75 2.2 35.9 6.714 0.264
16:42 1022 30.18 851 25.13 6.3 43.3 75 2.3 36.1 6.685 0.263
16:43 1022 30.18 851 25.13 6.3 43.3 75 2.2 36 6.702 0.264
16:44 1022 30.18 851 25.13 6.4 43.5 74 2.2 35.9 6.765 0.266
16:45 1022 30.18 852 25.16 6.3 43.4 75 2.2 35.9 6.782 0.267
16:46 1022 30.18 852 25.16 6.3 43.4 75 2.3 36.1 6.748 0.266
16:47 1022 30.18 852 25.16 6.3 43.4 77 2.7 36.8 6.72 0.265
16:48 1022 30.18 852 25.16 6.3 43.3 77 2.5 36.5 6.714 0.264
16:49 1022 30.18 852 25.16 6.3 43.3 75 2.2 36 6.714 0.264
16:50 1022 30.18 852 25.16 6.3 43.3 75 2.1 35.9 6.674 0.263
16:51 1022 30.18 852 25.16 6.1 43.1 76 2.2 36 6.499 0.256
16:52 1022 30.18 852 25.16 6.1 42.9 77 2.3 36.1 6.465 0.255
16:53 1022 30.18 852 25.16 6 42.9 77 2.3 36.1 6.448 0.254
16:54 1022 30.18 852 25.16 6 42.9 79 2.6 36.7 6.465 0.255
16:55 1022 30.18 852 25.16 6.1 42.9 76 2.2 35.9 6.493 0.256
16:56 1022 30.18 852 25.16 6.1 42.9 77 2.3 36.1 6.471 0.255
16:57 1022 30.18 852 25.16 6.1 42.9 76 2.2 36 6.471 0.255
16:58 1022 30.18 852 25.16 6 42.8 76 2.1 35.8 6.409 0.252
16:59 1022 30.18 852 25.16 5.9 42.7 76 2 35.6 6.324 0.249
17:00 1022 30.18 852 25.16 5.9 42.6 78 2.3 36.2 6.273 0.247
17:01 1022 30.18 852 25.16 5.9 42.6 77 2.2 35.9 6.279 0.247
17:02 1022 30.18 852 25.16 5.9 42.6 77 2.2 35.9 6.284 0.247
17:03 1023 30.21 852 25.16 5.8 42.5 76 2 35.6 6.256 0.246
17:04 1023 30.21 852 25.16 5.9 42.5 75 1.9 35.3 6.256 0.246
17:05 1023 30.21 852 25.16 5.7 42.3 76 1.8 35.3 6.126 0.241
17:06 1023 30.21 852 25.16 5.7 42.2 77 1.9 35.5 6.058 0.239
17:07 1023 30.21 852 25.16 5.6 42.1 78 2.1 35.8 6.047 0.238
17:08 1023 30.21 852 25.16 5.6 42 78 2.1 35.7 6.03 0.237
17:09 1023 30.21 852 25.16 5.6 42.1 77 2 35.6 6.058 0.239
17:10 1023 30.21 852 25.16 5.6 42.2 77 1.9 35.4 6.052 0.238
17:11 1023 30.21 852 25.16 5.6 42.1 77 2 35.5 6.024 0.237
17:12 1023 30.21 852 25.16 5.6 42.1 77 2 35.5 6.024 0.237
17:13 1023 30.21 852 25.16 5.6 42 78 2 35.6 5.956 0.234
17:14 1023 30.21 852 25.16 5.5 42 76 1.7 35.1 5.945 0.234
17:15 1023 30.21 852 25.16 5.5 41.8 78 1.9 35.4 5.883 0.232
17:16 1023 30.21 852 25.16 5.4 41.8 77 1.8 35.2 5.849 0.23
17:17 1023 30.21 852 25.16 5.4 41.7 78 1.9 35.4 5.798 0.228
17:18 1023 30.21 852 25.16 5.4 41.7 79 2 35.7 5.804 0.229
17:19 1023 30.21 852 25.16 5.4 41.6 79 1.9 35.5 5.77 0.227
17:20 1023 30.21 852 25.16 5.4 41.7 79 2 35.5 5.775 0.227
17:21 1023 30.21 852 25.16 5.4 41.7 78 1.9 35.4 5.792 0.228
17:22 1023 30.21 852 25.16 5.3 41.6 79 1.9 35.4 5.736 0.226
17:23 1023 30.21 852 25.16 5.3 41.5 80 2 35.6 5.685 0.224
17:24 1023 30.21 852 25.16 5.3 41.5 78 1.7 35.1 5.674 0.223
17:25 1023 30.21 852 25.16 5.2 41.3 78 1.6 34.9 5.577 0.22
17:26 1023 30.21 852 25.16 5.1 41.2 79 1.8 35.2 5.543 0.218
17:27 1023 30.21 852 25.16 5.1 41.2 79 1.8 35.3 5.577 0.22
17:28 1023 30.21 852 25.16 5.1 41.3 78 1.6 34.9 5.549 0.218
17:29 1023 30.21 852 25.16 5.1 41.2 78 1.6 34.9 5.532 0.218
17:30 1023 30.21 852 25.16 5.1 41.2 79 1.7 35.1 5.498 0.216
17:31 1023 30.21 852 25.16 5 41.1 80 1.8 35.3 5.504 0.217
17:32 1023 30.21 852 25.16 5.1 41.1 79 1.7 35.1 5.453 0.215
17:33 1023 30.21 852 25.16 5 41.1 79 1.8 35.2 5.425 0.214
17:34 1023 30.21 852 25.16 5 41 79 1.7 35.1 5.442 0.214
17:35 1022 30.18 852 25.16 5 41 80 1.8 35.3 5.379 0.212
17:36 1022 30.18 851 25.13 5 41 80 1.9 35.4 5.396 0.212
17:37 1022 30.18 851 25.13 5 41 82 2.2 35.9 5.362 0.211
17:38 1022 30.18 851 25.13 4.9 40.8 81 1.9 35.5 5.323 0.21
17:39 1022 30.18 851 25.13 4.8 40.7 85 2.4 36.4 5.244 0.206
17:40 1022 30.18 851 25.13 4.8 40.6 84 2.4 36.3 5.187 0.204
17:41 1022 30.18 851 25.13 4.7 40.5 83 2.1 35.7 5.091 0.2
17:42 1023 30.21 852 25.16 4.6 40.3 85 2.4 36.3 5.029 0.198
17:43 1023 30.21 852 25.16 4.6 40.3 85 2.3 36.1 5.018 0.198
17:44 1022 30.18 852 25.16 4.6 40.2 85 2.3 36.1 4.978 0.196
17:45 1022 30.18 852 25.16 4.5 40.2 86 2.4 36.2 4.978 0.196
17:46 1023 30.21 852 25.16 4.5 40.1 85 2.1 35.9 4.95 0.195
17:47 1023 30.21 852 25.16 4.5 40.1 85 2.2 36 4.899 0.193
17:48 1023 30.21 852 25.16 4.5 40.1 84 2.1 35.8 4.893 0.193
17:49 1023 30.21 852 25.16 4.5 40 86 2.3 36.2 4.916 0.194
17:50 1023 30.21 852 25.16 4.5 40 85 2.2 35.9 4.872 0.192
17:51 1023 30.21 852 25.16 4.5 40.1 84 2.1 35.7 4.906 0.193
17:52 1023 30.21 852 25.16 4.5 40.1 87 2.5 36.5 4.918 0.194
17:53 1023 30.21 852 25.16 4.6 40.2 86 2.4 36.3 4.986 0.196
17:54 1023 30.21 852 25.16 4.6 40.3 84 2.2 36 5.049 0.199
17:55 1023 30.21 852 25.16 4.6 40.3 86 2.4 36.4 5.026 0.198
17:56 1023 30.21 852 25.16 4.6 40.3 85 2.3 36.2 5.021 0.198
17:57 1023 30.21 852 25.16 4.6 40.3 86 2.5 36.6 5.066 0.199
17:58 1023 30.21 852 25.16 4.6 40.4 85 2.3 36.2 5.101 0.201
17:59 1023 30.21 852 25.16 4.7 40.4 85 2.4 36.3 5.129 0.202
18:00 1023 30.21 852 25.16 4.7 40.5 85 2.4 36.3 5.096 0.201
18:01 1023 30.21 852 25.16 4.7 40.5 84 2.2 35.9 5.164 0.203
18:02 1023 30.21 852 25.16 4.8 40.6 84 2.4 36.3 5.175 0.204
18:03 1023 30.21 852 25.16 4.8 40.7 84 2.3 36.2 5.221 0.206
18:04 1023 30.21 852 25.16 4.8 40.7 83 2.1 35.9 5.211 0.205
18:05 1023 30.21 852 25.16 4.8 40.7 83 2.2 36 5.251 0.207
18:06 1023 30.21 852 25.16 4.8 40.6 82 2 35.6 5.183 0.204
18:07 1023 30.21 852 25.16 4.7 40.5 81 1.8 35.3 5.145 0.203
18:08 1023 30.21 852 25.16 4.7 40.4 83 2.1 35.8 5.094 0.201
18:09 1023 30.21 852 25.16 4.7 40.4 82 1.9 35.5 5.089 0.2
18:10 1023 30.21 852 25.16 4.7 40.4 82 1.9 35.4 5.056 0.199
18:11 1023 30.21 852 25.16 4.6 40.3 81 1.7 35 5.011 0.197
18:12 1023 30.21 852 25.16 4.6 40.3 82 1.9 35.4 4.977 0.196
18:13 1023 30.21 852 25.16 4.6 40.2 83 1.9 35.5 4.983 0.196
18:14 1023 30.21 852 25.16 4.6 40.2 82 1.8 35.3 4.949 0.195
18:15 1023 30.21 852 25.16 4.5 40.2 82 1.8 35.2 4.915 0.194
18:16 1023 30.21 852 25.16 4.5 40.1 82 1.7 35.1 4.944 0.195
18:17 1023 30.21 852 25.16 4.5 40.2 81 1.5 34.8 4.962 0.195
18:18 1023 30.21 852 25.16 4.5 40.2 82 1.7 35 4.973 0.196
18:19 1023 30.21 852 25.16 4.6 40.2 81 1.6 34.8 4.968 0.196
18:20 1023 30.21 852 25.16 4.6 40.2 80 1.4 34.5 5.002 0.197
18:21 1023 30.21 852 25.16 4.6 40.3 80 1.5 34.7 5.002 0.197
18:22 1023 30.21 852 25.16 4.6 40.2 81 1.5 34.8 4.997 0.197
18:23 1023 30.21 852 25.16 4.6 40.2 81 1.5 34.8 4.946 0.195
18:24 1023 30.21 852 25.16 4.5 40.2 82 1.8 35.2 4.969 0.196
18:25 1023 30.21 852 25.16 4.5 40.2 82 1.7 35 4.912 0.193
18:26 1023 30.21 852 25.16 4.5 40.1 82 1.6 35 4.901 0.193
18:27 1023 30.21 852 25.16 4.5 40.1 82 1.6 34.9 4.895 0.193
18:28 1023 30.21 852 25.16 4.4 40 82 1.6 34.8 4.805 0.189
18:29 1023 30.21 852 25.16 4.4 40 82 1.6 34.8 4.856 0.191
18:30 1023 30.21 852 25.16 4.5 40 82 1.7 35 4.856 0.191
18:31 1022 30.18 852 25.16 4.5 40.1 82 1.7 35 4.862 0.191
18:32 1022 30.18 852 25.16 4.5 40.2 81 1.6 34.8 4.902 0.193
18:33 1022 30.18 852 25.16 4.5 40.2 81 1.6 34.8 4.924 0.194
18:34 1023 30.21 852 25.16 4.5 40.1 81 1.6 34.9 4.874 0.192
18:35 1023 30.21 852 25.16 4.5 40.1 81 1.6 34.9 4.857 0.191
18:36 1023 30.21 852 25.16 4.5 40.1 82 1.6 34.9 4.896 0.193
18:37 1022 30.18 852 25.16 4.6 40.2 83 1.9 35.4 4.925 0.194
18:38 1022 30.18 851 25.13 4.5 40.1 81 1.5 34.8 4.902 0.193
18:39 1022 30.18 851 25.13 4.4 39.9 82 1.6 34.8 4.817 0.19
18:40 1022 30.18 851 25.13 4.3 39.8 83 1.6 34.9 4.721 0.186
18:41 1023 30.21 852 25.16 4.2 39.6 83 1.6 34.8 4.67 0.184
18:42 1023 30.21 852 25.16 4.2 39.5 82 1.4 34.6 4.591 0.181
18:43 1023 30.21 852 25.16 4.1 39.4 83 1.5 34.6 4.506 0.177
18:44 1023 30.21 852 25.16 4.1 39.3 83 1.4 34.5 4.484 0.177
18:45 1023 30.21 852 25.16 4 39.3 82 1.3 34.3 4.433 0.175
18:46 1023 30.21 852 25.16 4 39.2 82 1.1 34.1 4.387 0.173
18:47 1023 30.21 852 25.16 4 39.1 82 1.2 34.1 4.325 0.17
18:48 1023 30.21 852 25.16 4 39.1 82 1.2 34.2 4.303 0.169
18:49 1023 30.21 852 25.16 3.9 39 81 1 33.8 4.331 0.171
18:50 1023 30.21 852 25.16 3.9 39 82 1.1 34 4.286 0.169
18:51 1023 30.21 852 25.16 3.9 39 81 0.9 33.5 4.303 0.169
18:52 1023 30.21 852 25.16 3.9 39 81 0.9 33.7 4.32 0.17
18:53 1023 30.21 852 25.16 3.9 39 81 0.9 33.7 4.291 0.169
18:54 1023 30.21 852 25.16 3.9 39 81 0.9 33.6 4.263 0.168
18:55 1023 30.21 852 25.16 3.8 38.9 82 1 33.8 4.258 0.168
18:56 1023 30.21 852 25.16 3.8 38.9 82 1.1 33.9 4.235 0.167
18:57 1023 30.21 852 25.16 3.8 38.9 82 1 33.9 4.235 0.167
18:58 1023 30.21 852 25.16 3.8 38.9 83 1.1 34.1 4.207 0.166
18:59 1023 30.21 852 25.16 3.8 38.8 82 1 33.8 4.241 0.167
19:00 1023 30.21 852 25.16 3.8 38.8 82 1 33.8 4.224 0.166
19:01 1023 30.21 852 25.16 3.8 38.8 82 1.1 33.9 4.195 0.165
19:02 1023 30.21 852 25.16 3.8 38.8 83 1.2 34.2 4.207 0.166
19:03 1023 30.21 852 25.16 3.8 38.8 83 1.1 34 4.224 0.166
19:04 1023 30.21 852 25.16 3.8 38.8 83 1.1 34 4.19 0.165
19:05 1023 30.21 852 25.16 3.7 38.7 83 1.1 34 4.173 0.164
19:06 1023 30.21 852 25.16 3.7 38.7 82 0.9 33.7 4.156 0.164
19:07 1023 30.21 852 25.16 3.8 38.8 81 0.9 33.6 4.156 0.164
19:08 1023 30.21 852 25.16 3.8 38.8 82 0.9 33.7 4.195 0.165
19:09 1023 30.21 852 25.16 3.8 38.8 82 0.9 33.6 4.184 0.165
19:10 1023 30.21 852 25.16 3.8 38.8 82 1 33.8 4.156 0.164
19:11 1023 30.21 852 25.16 3.7 38.7 81 0.9 33.5 4.195 0.165
19:12 1023 30.21 852 25.16 3.8 38.8 82 1 33.9 4.207 0.166
19:13 1023 30.21 852 25.16 3.8 38.8 82 1.1 33.9 4.212 0.166
19:14 1023 30.21 852 25.16 3.8 38.8 82 1 33.8 4.201 0.165
19:15 1023 30.21 852 25.16 3.8 38.8 81 0.9 33.6 4.212 0.166
19:16 1023 30.21 852 25.16 3.8 38.8 81 0.8 33.5 4.212 0.166
19:17 1023 30.21 852 25.16 3.8 38.8 81 0.8 33.5 4.212 0.166
19:18 1023 30.21 852 25.16 3.8 38.8 82 0.9 33.6 4.156 0.164
19:19 1023 30.21 852 25.16 3.7 38.7 82 0.9 33.5 4.116 0.162
19:20 1023 30.21 852 25.16 3.7 38.7 82 0.9 33.6 4.116 0.162
19:21 1023 30.21 852 25.16 3.7 38.6 82 0.8 33.5 4.111 0.162
19:22 1023 30.21 852 25.16 3.7 38.7 81 0.8 33.4 4.133 0.163
19:23 1023 30.21 852 25.16 3.7 38.6 82 0.9 33.6 4.071 0.16
19:24 1023 30.21 852 25.16 3.7 38.6 82 0.8 33.5 4.048 0.159
19:25 1023 30.21 852 25.16 3.6 38.5 82 0.9 33.5 4.037 0.159
19:26 1023 30.21 852 25.16 3.6 38.5 82 0.8 33.4 4.014 0.158
19:27 1023 30.21 852 25.16 3.6 38.5 82 0.8 33.5 3.992 0.157
19:28 1023 30.21 852 25.16 3.6 38.5 82 0.8 33.5 3.986 0.157
19:29 1023 30.21 852 25.16 3.6 38.4 82 0.8 33.4 4.009 0.158
19:30 1023 30.21 852 25.16 3.5 38.4 82 0.8 33.4 3.964 0.156
19:31 1023 30.21 852 25.16 3.5 38.4 82 0.8 33.4 3.964 0.156
19:32 1023 30.21 852 25.16 3.5 38.3 82 0.7 33.3 3.952 0.156
19:33 1023 30.21 852 25.16 3.5 38.4 83 0.9 33.6 3.907 0.154
19:34 1023 30.21 852 25.16 3.5 38.3 83 0.8 33.5 3.93 0.155
19:35 1023 30.21 852 25.16 3.5 38.3 82 0.7 33.3 3.959 0.156
19:36 1023 30.21 852 25.16 3.5 38.4 82 0.8 33.5 3.965 0.156
19:37 1023 30.21 852 25.16 3.6 38.4 82 0.8 33.5 3.971 0.156
19:38 1023 30.21 853 25.19 3.6 38.4 83 0.9 33.6 3.987 0.157
19:39 1023 30.21 853 25.19 3.6 38.5 83 0.9 33.6 3.999 0.157
19:40 1023 30.21 853 25.19 3.6 38.5 82 0.9 33.6 4.033 0.159
19:41 1023 30.21 853 25.19 3.7 38.6 81 0.7 33.3 4.034 0.159
19:42 1024 30.24 853 25.19 3.7 38.6 81 0.7 33.3 4.085 0.161
19:43 1024 30.24 853 25.19 3.7 38.6 81 0.8 33.4 4.096 0.161
19:44 1024 30.24 853 25.19 3.7 38.6 81 0.7 33.3 4.114 0.162
19:45 1024 30.24 853 25.19 3.7 38.6 82 0.8 33.5 4.063 0.16
19:46 1024 30.24 853 25.19 3.6 38.5 81 0.7 33.2 4.041 0.159
19:47 1024 30.24 853 25.19 3.6 38.5 81 0.7 33.3 4.041 0.159
19:48 1024 30.24 853 25.19 3.6 38.5 82 0.8 33.4 4.002 0.158
19:49 1024 30.24 853 25.19 3.6 38.5 82 0.9 33.6 4.002 0.158
19:50 1024 30.24 853 25.19 3.6 38.4 83 0.9 33.6 3.991 0.157
19:51 1024 30.24 853 25.19 3.5 38.3 83 0.9 33.5 3.946 0.155
19:52 1024 30.24 853 25.19 3.5 38.3 83 0.8 33.5 3.918 0.154
19:53 1024 30.24 853 25.19 3.5 38.3 82 0.7 33.3 3.941 0.155
19:54 1024 30.24 853 25.19 3.5 38.3 82 0.8 33.4 3.89 0.153
19:55 1024 30.24 853 25.19 3.5 38.3 83 0.9 33.6 3.912 0.154
19:56 1024 30.24 853 25.19 3.5 38.2 82 0.7 33.3 3.907 0.154
19:57 1024 30.24 853 25.19 3.5 38.3 83 0.8 33.5 3.873 0.152
19:58 1024 30.24 853 25.19 3.5 38.3 83 0.9 33.6 3.89 0.153
19:59 1024 30.24 853 25.19 3.4 38.2 83 0.8 33.4 3.845 0.151
20:00 1024 30.24 853 25.19 3.4 38.2 83 0.8 33.5 3.817 0.15
20:01 1024 30.24 853 25.19 3.4 38.1 83 0.9 33.5 3.783 0.149
20:02 1024 30.24 853 25.19 3.4 38.1 84 0.9 33.6 3.772 0.149
20:03 1024 30.24 853 25.19 3.4 38.1 83 0.8 33.4 3.761 0.148
20:04 1024 30.24 853 25.19 3.4 38.1 83 0.7 33.3 3.789 0.149
20:05 1024 30.24 853 25.19 3.4 38.1 83 0.8 33.4 3.84 0.151
20:06 1024 30.24 853 25.19 3.4 38.1 83 0.9 33.5 3.834 0.151
20:07 1024 30.24 853 25.19 3.4 38.2 83 0.9 33.6 3.863 0.152
20:08 1024 30.24 853 25.19 3.4 38.1 84 0.9 33.6 3.823 0.151
20:09 1024 30.24 853 25.19 3.4 38.1 83 0.8 33.5 3.84 0.151
20:10 1024 30.24 853 25.19 3.4 38.2 83 0.9 33.6 3.824 0.151
20:11 1024 30.24 853 25.19 3.4 38.2 83 0.9 33.5 3.831 0.151
20:12 1024 30.24 853 25.19 3.4 38.1 84 0.9 33.6 3.847 0.151
20:13 1024 30.24 853 25.19 3.4 38.1 83 0.8 33.5 3.796 0.149
20:14 1024 30.24 853 25.19 3.4 38.1 84 0.9 33.7 3.791 0.149
20:15 1024 30.24 853 25.19 3.4 38.1 84 0.9 33.6 3.802 0.15
20:16 1024 30.24 853 25.19 3.4 38.1 83 0.8 33.4 3.757 0.148
20:17 1024 30.24 853 25.19 3.4 38.1 83 0.8 33.4 3.785 0.149
20:18 1024 30.24 853 25.19 3.4 38.1 83 0.7 33.3 3.785 0.149
20:19 1024 30.24 853 25.19 3.4 38 83 0.7 33.2 3.751 0.148
20:20 1023 30.21 852 25.16 3.3 38 83 0.6 33.2 3.768 0.148
20:21 1023 30.21 852 25.16 3.3 38 83 0.8 33.4 3.717 0.146
20:22 1023 30.21 852 25.16 3.3 37.9 84 0.8 33.4 3.688 0.145
20:23 1023 30.21 852 25.16 3.3 37.9 83 0.6 33 3.649 0.144
20:24 1023 30.21 852 25.16 3.2 37.8 83 0.5 33 3.581 0.141
20:25 1023 30.21 852 25.16 3.2 37.8 82 0.5 32.9 3.632 0.143
20:26 1023 30.21 852 25.16 3.2 37.7 82 0.5 32.9 3.598 0.142
20:27 1023 30.21 852 25.16 3.2 37.7 82 0.4 32.8 3.575 0.141
20:28 1023 30.21 852 25.16 3.2 37.7 82 0.5 32.8 3.587 0.141
20:29 1023 30.21 852 25.16 3.2 37.8 83 0.5 32.9 3.615 0.142
20:30 1023 30.21 852 25.16 3.2 37.8 82 0.4 32.7 3.62 0.143
20:31 1023 30.21 852 25.16 3.3 37.9 82 0.4 32.8 3.65 0.144
20:32 1023 30.21 852 25.16 3.2 37.8 81 0.3 32.6 3.661 0.144
20:33 1023 30.21 852 25.16 3.3 37.9 81 0.4 32.6 3.678 0.145
20:34 1023 30.21 852 25.16 3.3 37.9 80 0.2 32.4 3.714 0.146
20:35 1023 30.21 853 25.19 3.3 38 80 0.3 32.5 3.759 0.148
20:36 1023 30.21 853 25.19 3.3 38 80 0.2 32.4 3.742 0.147
20:37 1023 30.21 852 25.16 3.3 38 80 0.2 32.4 3.726 0.147
20:38 1023 30.21 853 25.19 3.3 38 80 0.2 32.3 3.714 0.146
20:39 1023 30.21 853 25.19 3.3 37.9 80 0.2 32.4 3.686 0.145
20:40 1023 30.21 853 25.19 3.2 37.8 80 0.2 32.3 3.687 0.145
20:41 1023 30.21 853 25.19 3.3 37.9 80 0.2 32.4 3.676 0.145
20:42 1023 30.21 853 25.19 3.2 37.8 81 0.2 32.4 3.636 0.143
20:43 1024 30.24 853 25.19 3.2 37.8 81 0.3 32.5 3.637 0.143
20:44 1024 30.24 853 25.19 3.2 37.8 81 0.3 32.6 3.654 0.144
20:45 1024 30.24 853 25.19 3.2 37.7 82 0.4 32.6 3.591 0.141
20:46 1023 30.21 853 25.19 3.2 37.7 82 0.4 32.8 3.592 0.141
20:47 1023 30.21 853 25.19 3.2 37.8 81 0.3 32.6 3.603 0.142
20:48 1023 30.21 853 25.19 3.2 37.7 82 0.3 32.6 3.564 0.14
20:49 1023 30.21 853 25.19 3.1 37.7 82 0.4 32.7 3.564 0.14
20:50 1023 30.21 852 25.16 3.1 37.6 82 0.3 32.6 3.541 0.139
20:51 1023 30.21 852 25.16 3.1 37.6 82 0.3 32.6 3.524 0.139
20:52 1023 30.21 852 25.16 3.1 37.6 82 0.3 32.6 3.508 0.138
20:53 1023 30.21 852 25.16 3.1 37.6 82 0.3 32.5 3.513 0.138
20:54 1023 30.21 852 25.16 3.1 37.6 82 0.3 32.6 3.542 0.139
20:55 1023 30.21 852 25.16 3.1 37.6 82 0.3 32.6 3.519 0.139
20:56 1023 30.21 853 25.19 3.1 37.7 82 0.3 32.5 3.587 0.141
20:57 1023 30.21 853 25.19 3.2 37.7 81 0.3 32.5 3.581 0.141
20:58 1024 30.24 853 25.19 3.2 37.7 81 0.3 32.5 3.593 0.141
20:59 1024 30.24 853 25.19 3.2 37.7 82 0.4 32.6 3.576 0.141
21:00 1024 30.24 853 25.19 3.2 37.7 81 0.2 32.4 3.57 0.141
21:01 1024 30.24 853 25.19 3.2 37.8 81 0.2 32.4 3.616 0.142
21:02 1024 30.24 853 25.19 3.3 37.9 81 0.3 32.5 3.689 0.145
21:03 1024 30.24 853 25.19 3.3 37.9 81 0.3 32.5 3.729 0.147
21:04 1024 30.24 853 25.19 3.3 37.9 81 0.3 32.5 3.712 0.146
21:05 1024 30.24 853 25.19 3.4 38.1 79 0.1 32.2 3.797 0.149
21:06 1024 30.24 853 25.19 3.4 38.2 80 0.3 32.5 3.825 0.151
21:07 1024 30.24 854 25.22 3.5 38.2 79 0.2 32.3 3.888 0.153
21:08 1024 30.24 854 25.22 3.5 38.3 79 0.1 32.3 3.938 0.155
21:09 1025 30.27 854 25.22 3.6 38.4 79 0.2 32.3 3.972 0.156
21:10 1025 30.27 854 25.22 3.6 38.4 78 0.2 32.3 3.989 0.157
21:11 1025 30.27 854 25.22 3.6 38.5 78 0.2 32.3 3.978 0.157
21:12 1025 30.27 854 25.22 3.6 38.5 78 0 32.1 4.023 0.158
21:13 1025 30.27 855 25.25 3.6 38.5 79 0.3 32.5 4.018 0.158
21:14 1025 30.27 855 25.25 3.6 38.6 79 0.3 32.5 4.007 0.158
21:15 1025 30.27 855 25.25 3.6 38.5 79 0.2 32.4 4.024 0.158
21:16 1025 30.27 854 25.22 3.7 38.6 79 0.3 32.5 4.058 0.16
21:17 1025 30.27 854 25.22 3.7 38.7 79 0.3 32.6 4.091 0.161
21:18 1025 30.27 854 25.22 3.7 38.7 79 0.3 32.6 4.086 0.161
21:19 1025 30.27 854 25.22 3.7 38.6 79 0.4 32.6 4.092 0.161
21:20 1025 30.27 854 25.22 3.7 38.7 79 0.4 32.8 4.075 0.16
21:21 1025 30.27 854 25.22 3.7 38.7 81 0.7 33.2 4.114 0.162
21:22 1024 30.24 853 25.19 3.6 38.5 82 0.9 33.6 4.007 0.158
21:23 1024 30.24 853 25.19 3.5 38.4 83 0.9 33.6 3.91 0.154
21:24 1024 30.24 853 25.19 3.4 38.1 85 1.1 34 3.786 0.149
21:25 1024 30.24 853 25.19 3.3 37.9 86 1.2 34.2 3.729 0.147
21:26 1024 30.24 853 25.19 3.2 37.8 86 1.2 34.1 3.616 0.142
21:27 1024 30.24 853 25.19 3.2 37.7 86 1 33.8 3.554 0.14
21:28 1024 30.24 853 25.19 3.1 37.6 87 1.2 34.2 3.514 0.138
21:29 1024 30.24 853 25.19 3.1 37.5 88 1.3 34.3 3.469 0.137
21:30 1024 30.24 853 25.19 3 37.5 87 1.1 34 3.469 0.137
21:31 1024 30.24 853 25.19 3.1 37.5 88 1.2 34.2 3.486 0.137
21:32 1024 30.24 853 25.19 3.1 37.5 87 1 33.9 3.52 0.139
21:33 1024 30.24 853 25.19 3.1 37.5 87 1.2 34.1 3.486 0.137
21:34 1024 30.24 853 25.19 3 37.5 88 1.3 34.3 3.435 0.135
21:35 1023 30.21 852 25.16 3 37.3 89 1.3 34.3 3.35 0.132
21:36 1023 30.21 852 25.16 2.9 37.2 90 1.3 34.4 3.333 0.131
21:37 1023 30.21 852 25.16 2.8 37.1 89 1.2 34.2 3.237 0.127
21:38 1023 30.21 852 25.16 2.8 37 89 1.1 34.1 3.175 0.125
21:39 1023 30.21 852 25.16 2.7 36.9 89 1.2 34.1 3.135 0.123
21:40 1023 30.21 852 25.16 2.7 36.8 90 1.2 34.2 3.056 0.12
21:41 1022 30.18 852 25.16 2.6 36.8 90 1.2 34.2 3.033 0.119
21:42 1022 30.18 852 25.16 2.6 36.6 91 1.2 34.2 3.005 0.118
21:43 1022 30.18 851 25.13 2.6 36.6 91 1.2 34.2 2.943 0.116
21:44 1022 30.18 852 25.16 2.5 36.6 91 1.2 34.2 2.937 0.116
21:45 1022 30.18 852 25.16 2.6 36.6 91 1.2 34.1 2.988 0.118
21:46 1023 30.21 852 25.16 2.6 36.7 91 1.2 34.2 3.045 0.12
21:47 1023 30.21 852 25.16 2.6 36.8 91 1.3 34.3 3.045 0.12
21:48 1023 30.21 852 25.16 2.7 36.8 91 1.3 34.3 3.062 0.121
21:49 1023 30.21 852 25.16 2.7 36.8 91 1.4 34.6 3.05 0.12
21:50 1023 30.21 852 25.16 2.6 36.7 91 1.3 34.3 3.016 0.119
21:51 1024 30.24 853 25.19 2.6 36.8 91 1.3 34.4 2.994 0.118
21:52 1024 30.24 853 25.19 2.6 36.7 91 1.3 34.3 2.954 0.116
21:53 1024 30.24 853 25.19 2.6 36.6 91 1.2 34.2 2.948 0.116
21:54 1024 30.24 853 25.19 2.6 36.6 90 1.1 34 2.898 0.114
21:55 1024 30.24 853 25.19 2.5 36.5 89 1 33.7 2.864 0.113
21:56 1024 30.24 853 25.19 2.5 36.6 90 1 33.8 2.858 0.113
21:57 1023 30.21 853 25.19 2.5 36.5 90 1.1 34 2.881 0.113
21:58 1023 30.21 853 25.19 2.5 36.6 90 1.1 33.9 2.864 0.113
21:59 1023 30.21 852 25.16 2.6 36.7 90 1.1 34 2.881 0.113
22:00 1023 30.21 852 25.16 2.6 36.6 90 1.1 33.9 2.852 0.112
22:01 1023 30.21 852 25.16 2.5 36.5 90 1.1 33.9 2.875 0.113
22:02 1023 30.21 852 25.16 2.5 36.5 90 1 33.8 2.801 0.11
22:03 1023 30.21 852 25.16 2.5 36.5 91 1.1 34 2.864 0.113
22:04 1023 30.21 852 25.16 2.5 36.5 90 0.9 33.7 2.813 0.111
22:05 1023 30.21 852 25.16 2.5 36.5 89 0.9 33.6 2.796 0.11
22:06 1023 30.21 852 25.16 2.5 36.5 89 0.9 33.6 2.835 0.112
22:07 1022 30.18 852 25.16 2.5 36.5 89 0.9 33.6 2.83 0.111
22:08 1022 30.18 851 25.13 2.5 36.5 89 0.8 33.5 2.852 0.112
22:09 1022 30.18 851 25.13 2.5 36.5 90 1 33.8 2.841 0.112
22:10 1022 30.18 851 25.13 2.5 36.5 90 1 33.8 2.869 0.113
22:11 1022 30.18 851 25.13 2.5 36.6 90 1 33.8 2.915 0.115
22:12 1022 30.18 851 25.13 2.6 36.6 89 0.9 33.7 2.948 0.116
22:13 1022 30.18 851 25.13 2.7 36.8 88 0.9 33.7 3.022 0.119
22:14 1022 30.18 851 25.13 2.7 36.8 89 1 33.8 3.016 0.119
22:15 1022 30.18 851 25.13 2.7 36.9 88 1 33.8 3.13 0.123
22:16 1022 30.18 851 25.13 2.8 37.1 88 1 33.8 3.192 0.126
22:17 1022 30.18 851 25.13 2.9 37.2 88 1.1 34 3.237 0.127
22:18 1022 30.18 851 25.13 3 37.3 87 1.1 33.9 3.339 0.131
22:19 1022 30.18 851 25.13 3.1 37.5 87 1.1 34 3.418 0.135
22:20 1022 30.18 851 25.13 3.1 37.7 86 1 33.8 3.509 0.138
22:21 1022 30.18 851 25.13 3.2 37.8 86 1 33.9 3.52 0.139
22:22 1022 30.18 851 25.13 3.2 37.7 85 0.9 33.6 3.56 0.14
22:23 1022 30.18 851 25.13 3.2 37.7 85 0.9 33.6 3.531 0.139
22:24 1022 30.18 851 25.13 3.1 37.6 85 0.9 33.6 3.469 0.137
22:25 1022 30.18 851 25.13 3.1 37.5 85 0.9 33.5 3.435 0.135
22:26 1022 30.18 852 25.16 3.1 37.5 86 0.9 33.6 3.333 0.131
22:27 1022 30.18 852 25.16 3 37.3 86 0.9 33.6 3.362 0.132
22:28 1022 30.18 852 25.16 2.9 37.3 86 0.8 33.5 3.288 0.129
22:29 1022 30.18 852 25.16 2.9 37.3 87 0.9 33.7 3.277 0.129
22:30 1022 30.18 851 25.13 2.9 37.2 86 0.8 33.5 3.277 0.129
22:31 1022 30.18 851 25.13 2.9 37.2 86 0.8 33.4 3.288 0.129
22:32 1022 30.18 851 25.13 2.9 37.3 85 0.6 33 3.288 0.129
22:33 1022 30.18 851 25.13 3 37.4 84 0.6 33.1 3.356 0.132
22:34 1022 30.18 851 25.13 3 37.5 85 0.7 33.3 3.43 0.135
22:35 1022 30.18 851 25.13 3.1 37.6 85 0.8 33.4 3.48 0.137
22:36 1022 30.18 851 25.13 3.1 37.6 85 0.8 33.5 3.486 0.137
22:37 1022 30.18 851 25.13 3.1 37.6 85 0.9 33.6 3.475 0.137
22:38 1022 30.18 852 25.16 3.1 37.6 86 1 33.8 3.497 0.138
22:39 1022 30.18 852 25.16 3.1 37.6 85 0.8 33.5 3.446 0.136
22:40 1023 30.21 852 25.16 3.1 37.5 85 0.8 33.4 3.452 0.136
22:41 1022 30.18 852 25.16 3.1 37.6 84 0.7 33.2 3.463 0.136
22:42 1023 30.21 852 25.16 3.1 37.6 84 0.7 33.2 3.52 0.139
22:43 1022 30.18 852 25.16 3.2 37.7 83 0.6 33.1 3.516 0.138
22:44 1023 30.21 852 25.16 3.1 37.7 83 0.5 33 3.527 0.139
22:45 1023 30.21 852 25.16 3.2 37.8 83 0.6 33.1 3.584 0.141
22:46 1023 30.21 852 25.16 3.3 37.9 82 0.6 33.1 3.674 0.145
22:47 1023 30.21 852 25.16 3.3 37.9 83 0.6 33.2 3.668 0.144
22:48 1023 30.21 852 25.16 3.3 37.9 84 0.8 33.4 3.623 0.143
22:49 1023 30.21 852 25.16 3.2 37.8 84 0.8 33.4 3.617 0.142
22:50 1023 30.21 852 25.16 3.2 37.8 85 1 33.7 3.595 0.142
22:51 1023 30.21 852 25.16 3.2 37.8 87 1.2 34.1 3.578 0.141
22:52 1023 30.21 852 25.16 3.2 37.7 87 1.2 34.2 3.572 0.141
22:53 1023 30.21 852 25.16 3.2 37.8 87 1.3 34.4 3.651 0.144
22:54 1023 30.21 852 25.16 3.3 38 86 1.2 34.1 3.725 0.147
22:55 1023 30.21 852 25.16 3.3 38 86 1.3 34.3 3.741 0.147
22:56 1023 30.21 852 25.16 3.4 38 87 1.3 34.4 3.775 0.149
22:57 1023 30.21 852 25.16 3.4 38.1 86 1.3 34.4 3.809 0.15
22:58 1023 30.21 852 25.16 3.5 38.3 87 1.6 34.8 3.894 0.153
22:59 1023 30.21 852 25.16 3.5 38.4 86 1.4 34.5 3.922 0.154
23:00 1023 30.21 852 25.16 3.5 38.3 86 1.4 34.5 3.866 0.152
23:01 1023 30.21 852 25.16 3.5 38.3 87 1.5 34.7 3.843 0.151
23:02 1023 30.21 852 25.16 3.4 38.2 87 1.5 34.7 3.837 0.151
23:03 1023 30.21 852 25.16 3.4 38.1 87 1.5 34.7 3.803 0.15
23:04 1023 30.21 852 25.16 3.4 38.2 87 1.4 34.5 3.798 0.15
23:05 1023 30.21 852 25.16 3.4 38.2 87 1.5 34.7 3.803 0.15
23:06 1023 30.21 852 25.16 3.4 38.2 86 1.2 34.2 3.786 0.149
23:07 1023 30.21 853 25.19 3.4 38.1 86 1.2 34.2 3.741 0.147
23:08 1023 30.21 853 25.19 3.3 37.9 85 1.1 33.9 3.667 0.144
23:09 1023 30.21 853 25.19 3.3 37.9 86 1.2 34.1 3.645 0.144
23:10 1023 30.21 852 25.16 3.3 37.9 86 1.1 34 3.628 0.143
23:11 1023 30.21 852 25.16 3.3 37.9 86 1.2 34.2 3.639 0.143
23:12 1023 30.21 852 25.16 3.2 37.8 86 1.1 34.1 3.65 0.144
23:13 1023 30.21 852 25.16 3.3 37.9 86 1.2 34.1 3.645 0.144
23:14 1023 30.21 852 25.16 3.2 37.8 85 1 33.8 3.628 0.143
23:15 1023 30.21 852 25.16 3.2 37.8 85 1 33.8 3.616 0.142
23:16 1023 30.21 852 25.16 3.3 37.9 85 1 33.8 3.616 0.142
23:17 1023 30.21 852 25.16 3.2 37.8 85 0.9 33.7 3.588 0.141
23:18 1023 30.21 852 25.16 3.2 37.7 85 0.9 33.6 3.588 0.141
23:19 1023 30.21 852 25.16 3.2 37.7 85 0.9 33.7 3.56 0.14
23:20 1023 30.21 852 25.16 3.2 37.7 86 1 33.8 3.582 0.141
23:21 1023 30.21 852 25.16 3.2 37.8 86 1.1 34 3.509 0.138
23:22 1023 30.21 852 25.16 3.1 37.7 85 0.9 33.7 3.571 0.141
23:23 1023 30.21 852 25.16 3.2 37.7 86 1 33.7 3.548 0.14
23:24 1023 30.21 853 25.19 3.1 37.7 85 0.9 33.7 3.543 0.139
23:25 1023 30.21 852 25.16 3.1 37.7 85 0.9 33.5 3.509 0.138
23:26 1023 30.21 852 25.16 3.1 37.6 85 0.9 33.6 3.531 0.139
23:27 1023 30.21 852 25.16 3.1 37.6 86 0.9 33.7 3.481 0.137
23:28 1023 30.21 853 25.19 3.1 37.5 86 0.9 33.7 3.447 0.136
23:29 1023 30.21 853 25.19 3.1 37.5 86 1 33.7 3.435 0.135
23:30 1023 30.21 853 25.19 3.1 37.5 86 0.9 33.6 3.447 0.136
23:31 1023 30.21 853 25.19 3.1 37.5 86 0.9 33.6 3.43 0.135
23:32 1023 30.21 853 25.19 3 37.4 86 0.8 33.5 3.384 0.133
23:33 1023 30.21 853 25.19 3 37.4 86 0.9 33.6 3.373 0.133
23:34 1023 30.21 853 25.19 2.9 37.3 85 0.7 33.3 3.294 0.13
23:35 1023 30.21 853 25.19 2.9 37.2 86 0.7 33.3 3.271 0.129
23:36 1023 30.21 853 25.19 2.8 37.1 86 0.8 33.4 3.226 0.127
23:37 1023 30.21 853 25.19 2.8 37 86 0.7 33.3 3.198 0.126
23:38 1023 30.21 853 25.19 2.8 37.1 86 0.7 33.3 3.135 0.123
23:39 1023 30.21 853 25.19 2.7 36.9 86 0.6 33.1 3.09 0.122
23:40 1023 30.21 853 25.19 2.7 36.8 86 0.6 33.1 3.073 0.121
23:41 1023 30.21 853 25.19 2.6 36.7 87 0.7 33.2 3.039 0.12
23:42 1023 30.21 853 25.19 2.6 36.7 87 0.7 33.2 3.056 0.12
23:43 1023 30.21 853 25.19 2.6 36.7 87 0.6 33.2 3.022 0.119
23:44 1023 30.21 853 25.19 2.6 36.7 86 0.6 33 2.988 0.118
23:45 1023 30.21 852 25.16 2.6 36.7 86 0.6 33 3.005 0.118
23:46 1023 30.21 853 25.19 2.6 36.7 87 0.7 33.2 3.005 0.118
23:47 1023 30.21 853 25.19 2.6 36.6 87 0.6 33.1 2.949 0.116
23:48 1023 30.21 853 25.19 2.5 36.6 86 0.5 32.9 2.954 0.116
23:49 1023 30.21 853 25.19 2.5 36.6 86 0.5 32.9 2.92 0.115
23:50 1023 30.21 853 25.19 2.5 36.5 86 0.4 32.7 2.909 0.115
23:51 1023 30.21 852 25.16 2.5 36.5 87 0.6 33.1 2.892 0.114
23:52 1023 30.21 852 25.16 2.5 36.5 86 0.4 32.8 2.909 0.115
23:53 1023 30.21 852 25.16 2.5 36.5 86 0.4 32.7 2.864 0.113
23:54 1023 30.21 852 25.16 2.5 36.4 87 0.4 32.8 2.807 0.111
23:55 1023 30.21 852 25.16 2.4 36.4 87 0.5 32.8 2.852 0.112
23:56 1023 30.21 852 25.16 2.4 36.3 85 0.2 32.3 2.796 0.11
23:57 1023 30.21 852 25.16 2.4 36.3 86 0.3 32.6 2.779 0.109
23:58 1023 30.21 852 25.16 2.4 36.3 86 0.3 32.6 2.79 0.11
23:59 1023 30.21 852 25.16 2.3 36.2 87 0.3 32.6 2.745 0.108
24:00 1023 30.21 852 25.16 2.3 36.2 86 0.2 32.3 2.728 0.107